Observation data for Castolon 1NW BBNP on 11/14/2019      Previous  Date       Current Mesonet Observations  Soil Data  Daily Summary Page  Observations in Plain Language
KCA2 140600Z 28002KT 09/09 A3006 RMK A01 T00910086  RH  096%=      5-min Rain = 0
KCA2 140601Z 29002KT 09/09 A3006 RMK A01 T00910086  RH  096%=      5-min Rain = 0
KCA2 140602Z 29002KT 09/09 A3006 RMK A01 T00910085  RH  096%=      5-min Rain = 0
KCA2 140603Z 29001KT 09/09 A3006 RMK A01 T00910086  RH  096%=      5-min Rain = 0
KCA2 140604Z 28001KT 09/09 A3006 RMK A01 T00910086  RH  096%=      5-min Rain = 0
KCA2 140605Z 28001KT 09/09 A3006 RMK A01 T00910086  RH  096%=      5-min Rain = 0
KCA2 140606Z 28001KT 09/09 A3006 RMK A01 T00910086  RH  096%=      5-min Rain = 0
KCA2 140607Z 29002KT 09/09 A3007 RMK A01 T00910086  RH  096%=      5-min Rain = 0
KCA2 140608Z 30002KT 09/09 A3007 RMK A01 T00910085  RH  096%=      5-min Rain = 0
KCA2 140609Z 31002KT 09/09 A3007 RMK A01 T00910085  RH  096%=      5-min Rain = 0
KCA2 140610Z 32003KT 09/09 A3007 RMK A01 T00910085  RH  096%=      5-min Rain = 0
KCA2 140611Z 32003KT 09/09 A3007 RMK A01 T00910085  RH  096%=      5-min Rain = 0
KCA2 140612Z 32003KT 09/09 A3007 RMK A01 T00910085  RH  096%=      5-min Rain = 0
KCA2 140613Z 31003KT 09/09 A3007 RMK A01 T00910086  RH  096%=      5-min Rain = 0
KCA2 140614Z 31003KT 09/09 A3007 RMK A01 T00910086  RH  096%=      5-min Rain = 0
KCA2 140615Z 31003KT 09/09 A3007 RMK A01 T00910086  RH  096%=      5-min Rain = 0
KCA2 140616Z 31004KT 09/09 A3007 RMK A01 T00920086  RH  096%=      5-min Rain = 0
KCA2 140617Z 31003KT 09/09 A3007 RMK A01 T00920086  RH  096%=      5-min Rain = 0
KCA2 140618Z 30002KT 09/09 A3007 RMK A01 T00910086  RH  096%=      5-min Rain = 0
KCA2 140619Z 29003KT 09/09 A3007 RMK A01 T00910086  RH  096%=      5-min Rain = 0
KCA2 140620Z 29002KT 09/09 A3007 RMK A01 T00910086  RH  096%=      5-min Rain = 0
KCA2 140621Z 29002KT 09/09 A3007 RMK A01 T00910085  RH  096%=      5-min Rain = 0
KCA2 140622Z 29002KT 09/09 A3007 RMK A01 T00910085  RH  096%=      5-min Rain = 0
KCA2 140623Z 28002KT 09/09 A3007 RMK A01 T00910085  RH  096%=      5-min Rain = 0
KCA2 140624Z 28002KT 09/09 A3007 RMK A01 T00910085  RH  096%=      5-min Rain = 0
KCA2 140625Z 28002KT 09/09 A3007 RMK A01 T00910085  RH  096%=      5-min Rain = 0
KCA2 140626Z 28003KT 09/09 A3007 RMK A01 T00910085  RH  096%=      5-min Rain = 0
KCA2 140627Z 28003KT 09/09 A3007 RMK A01 T00910085  RH  096%=      5-min Rain = 0
KCA2 140628Z 28003KT 09/09 A3007 RMK A01 T00910086  RH  096%=      5-min Rain = 0
KCA2 140629Z 28003KT 09/09 A3007 RMK A01 T00910086  RH  096%=      5-min Rain = 0
KCA2 140630Z 27003KT 09/09 A3007 RMK A01 T00910085  RH  096%=      5-min Rain = 0
KCA2 140631Z 27003KT 09/09 A3007 RMK A01 T00910085  RH  096%=      5-min Rain = 0
KCA2 140632Z 26003KT 09/09 A3007 RMK A01 T00900085  RH  096%=      5-min Rain = 0
KCA2 140633Z 26003KT 09/09 A3007 RMK A01 T00900085  RH  096%=      5-min Rain = 0
KCA2 140634Z 27002KT 09/09 A3007 RMK A01 T00900085  RH  096%=      5-min Rain = 0
KCA2 140635Z 27002KT 09/09 A3007 RMK A01 T00910085  RH  096%=      5-min Rain = 0
KCA2 140636Z 28002KT 09/08 A3007 RMK A01 T00900084  RH  096%=      5-min Rain = 0
KCA2 140637Z 28002KT 09/09 A3007 RMK A01 T00900085  RH  096%=      5-min Rain = 0
KCA2 140638Z 28002KT 09/09 A3007 RMK A01 T00900085  RH  096%=      5-min Rain = 0
KCA2 140639Z 29002KT 09/09 A3007 RMK A01 T00900085  RH  096%=      5-min Rain = 0
KCA2 140640Z 28002KT 09/09 A3007 RMK A01 T00900085  RH  096%=      5-min Rain = 0
KCA2 140641Z 29003KT 09/09 A3007 RMK A01 T00900085  RH  096%=      5-min Rain = 0
KCA2 140642Z 29003KT 09/09 A3007 RMK A01 T00900085  RH  096%=      5-min Rain = 0
KCA2 140643Z 29003KT 09/09 A3007 RMK A01 T00900085  RH  096%=      5-min Rain = 0
KCA2 140644Z 30003KT 09/08 A3007 RMK A01 T00900084  RH  096%=      5-min Rain = 0
KCA2 140645Z 29002KT 09/09 A3007 RMK A01 T00900085  RH  096%=      5-min Rain = 0
KCA2 140646Z 29002KT 09/08 A3007 RMK A01 T00900084  RH  096%=      5-min Rain = 0
KCA2 140647Z 30002KT 09/08 A3007 RMK A01 T00900084  RH  096%=      5-min Rain = 0
KCA2 140648Z 30003KT 09/08 A3007 RMK A01 T00890084  RH  096%=      5-min Rain = 0
KCA2 140649Z 30002KT 09/08 A3007 RMK A01 T00890084  RH  096%=      5-min Rain = 0
KCA2 140650Z 32002KT 09/08 A3007 RMK A01 T00900084  RH  096%=      5-min Rain = 0
KCA2 140651Z 31001KT 09/08 A3007 RMK A01 T00900084  RH  096%=      5-min Rain = 0
KCA2 140652Z 32001KT 09/08 A3007 RMK A01 T00900084  RH  096%=      5-min Rain = 0
KCA2 140653Z 32001KT 09/08 A3007 RMK A01 T00890084  RH  096%=      5-min Rain = 0
KCA2 140654Z 32002KT 09/08 A3007 RMK A01 T00900084  RH  096%=      5-min Rain = 0
KCA2 140655Z 32001KT 09/08 A3007 RMK A01 T00890084  RH  096%=      5-min Rain = 0
KCA2 140656Z 32001KT 09/08 A3007 RMK A01 T00890084  RH  096%=      5-min Rain = 0
KCA2 140657Z 35001KT 09/08 A3007 RMK A01 T00900084  RH  096%=      5-min Rain = 0
KCA2 140658Z 35001KT 09/08 A3007 RMK A01 T00900084  RH  096%=      5-min Rain = 0
KCA2 140659Z 35002KT 09/08 A3007 RMK A01 T00900084  RH  096%=      5-min Rain = 0
KCA2 140700Z 36002KT 09/08 A3007 RMK A01 T00900084  RH  096%=      5-min Rain = 0
KCA2 140701Z 35003KT 09/08 A3007 RMK A01 T00900083  RH  096%=      5-min Rain = 0
KCA2 140702Z 35003KT 09/08 A3007 RMK A01 T00900083  RH  095%=      5-min Rain = 0
KCA2 140703Z 35003KT 09/08 A3007 RMK A01 T00900083  RH  095%=      5-min Rain = 0
KCA2 140704Z 35003KT 09/08 A3007 RMK A01 T00900083  RH  095%=      5-min Rain = 0
KCA2 140705Z 35003KT 09/08 A3007 RMK A01 T00900083  RH  095%=      5-min Rain = 0
KCA2 140706Z 35003KT 09/08 A3007 RMK A01 T00910083  RH  095%=      5-min Rain = 0
KCA2 140707Z 34002KT 09/08 A3007 RMK A01 T00900083  RH  095%=      5-min Rain = 0
KCA2 140708Z 34002KT 09/08 A3007 RMK A01 T00910083  RH  095%=      5-min Rain = 0
KCA2 140709Z 34002KT 09/08 A3007 RMK A01 T00900083  RH  095%=      5-min Rain = 0
KCA2 140710Z 33003KT 09/08 A3007 RMK A01 T00900082  RH  095%=      5-min Rain = 0
KCA2 140711Z 33003KT 09/08 A3007 RMK A01 T00900082  RH  095%=      5-min Rain = 0
KCA2 140712Z 33003KT 09/08 A3007 RMK A01 T00900082  RH  095%=      5-min Rain = 0
KCA2 140713Z 33003KT 09/08 A3007 RMK A01 T00900082  RH  095%=      5-min Rain = 0
KCA2 140714Z 33003KT 09/08 A3007 RMK A01 T00890081  RH  095%=      5-min Rain = 0
KCA2 140715Z 33003KT 09/08 A3007 RMK A01 T00890081  RH  095%=      5-min Rain = 0
KCA2 140716Z 33002KT 09/08 A3007 RMK A01 T00890081  RH  095%=      5-min Rain = 0
KCA2 140717Z 33002KT 09/08 A3008 RMK A01 T00890081  RH  095%=      5-min Rain = 0
KCA2 140718Z 32001KT 09/08 A3008 RMK A01 T00880080  RH  095%=      5-min Rain = 0
KCA2 140719Z 31002KT 09/08 A3008 RMK A01 T00880081  RH  095%=      5-min Rain = 0
KCA2 140720Z 30002KT 09/08 A3008 RMK A01 T00880081  RH  095%=      5-min Rain = 0
KCA2 140721Z 28002KT 09/08 A3008 RMK A01 T00880080  RH  095%=      5-min Rain = 0
KCA2 140722Z 28002KT 09/08 A3008 RMK A01 T00870081  RH  096%=      5-min Rain = 0
KCA2 140723Z 28002KT 09/08 A3008 RMK A01 T00870081  RH  096%=      5-min Rain = 0
KCA2 140724Z 28003KT 09/08 A3008 RMK A01 T00870081  RH  096%=      5-min Rain = 0
KCA2 140725Z 29003KT 09/08 A3008 RMK A01 T00870081  RH  096%=      5-min Rain = 0
KCA2 140726Z 29003KT 09/08 A3008 RMK A01 T00860080  RH  096%=      5-min Rain = 0
KCA2 140727Z 29003KT 09/08 A3008 RMK A01 T00860079  RH  096%=      5-min Rain = 0
KCA2 140728Z 29003KT 09/08 A3008 RMK A01 T00850079  RH  096%=      5-min Rain = 0
KCA2 140729Z 29003KT 09/08 A3008 RMK A01 T00850079  RH  096%=      5-min Rain = 0
KCA2 140730Z 29003KT 09/08 A3008 RMK A01 T00850079  RH  096%=      5-min Rain = 0
KCA2 140731Z 30003KT 09/08 A3008 RMK A01 T00850079  RH  096%=      5-min Rain = 0
KCA2 140732Z 30003KT 09/08 A3008 RMK A01 T00850079  RH  096%=      5-min Rain = 0
KCA2 140733Z 30003KT 09/08 A3008 RMK A01 T00860079  RH  096%=      5-min Rain = 0
KCA2 140734Z 30003KT 09/08 A3008 RMK A01 T00850079  RH  096%=      5-min Rain = 0
KCA2 140735Z 30003KT 09/08 A3008 RMK A01 T00850079  RH  096%=      5-min Rain = 0
KCA2 140736Z 31003KT 09/08 A3008 RMK A01 T00850079  RH  096%=      5-min Rain = 0
KCA2 140737Z 31003KT 09/08 A3008 RMK A01 T00850079  RH  096%=      5-min Rain = 0
KCA2 140738Z 31003KT 09/08 A3008 RMK A01 T00850078  RH  095%=      5-min Rain = 0
KCA2 140739Z 31003KT 09/08 A3008 RMK A01 T00860079  RH  095%=      5-min Rain = 0
KCA2 140740Z 31003KT 09/08 A3008 RMK A01 T00860078  RH  095%=      5-min Rain = 0
KCA2 140741Z 31002KT 09/08 A3008 RMK A01 T00860078  RH  095%=      5-min Rain = 0
KCA2 140742Z 31002KT 09/08 A3008 RMK A01 T00850078  RH  095%=      5-min Rain = 0
KCA2 140743Z 32003KT 09/08 A3008 RMK A01 T00850078  RH  095%=      5-min Rain = 0
KCA2 140744Z 32002KT 09/08 A3008 RMK A01 T00850078  RH  095%=      5-min Rain = 0
KCA2 140745Z 32002KT 09/08 A3008 RMK A01 T00850078  RH  095%=      5-min Rain = 0
KCA2 140746Z 33002KT 09/08 A3008 RMK A01 T00850078  RH  095%=      5-min Rain = 0
KCA2 140747Z 32002KT 09/08 A3008 RMK A01 T00850078  RH  095%=      5-min Rain = 0
KCA2 140748Z 31002KT 09/08 A3008 RMK A01 T00850078  RH  095%=      5-min Rain = 0
KCA2 140749Z 31002KT 09/08 A3008 RMK A01 T00850078  RH  095%=      5-min Rain = 0
KCA2 140750Z 31002KT 08/08 A3008 RMK A01 T00840077  RH  095%=      5-min Rain = 0
KCA2 140751Z 31002KT 09/08 A3009 RMK A01 T00850077  RH  095%=      5-min Rain = 0
KCA2 140752Z 32003KT 08/08 A3009 RMK A01 T00840077  RH  095%=      5-min Rain = 0
KCA2 140753Z 33003KT 08/08 A3009 RMK A01 T00840077  RH  095%=      5-min Rain = 0
KCA2 140754Z 33003KT 08/08 A3009 RMK A01 T00840077  RH  095%=      5-min Rain = 0
KCA2 140755Z 32003KT 08/08 A3009 RMK A01 T00840077  RH  095%=      5-min Rain = 0
KCA2 140756Z 32003KT 08/08 A3009 RMK A01 T00840078  RH  095%=      5-min Rain = 0
KCA2 140757Z 32003KT 08/08 A3009 RMK A01 T00840077  RH  095%=      5-min Rain = 0
KCA2 140758Z 31003KT 08/08 A3009 RMK A01 T00840077  RH  095%=      5-min Rain = 0
KCA2 140759Z 31003KT 08/08 A3009 RMK A01 T00840077  RH  095%=      5-min Rain = 0
KCA2 140800Z 31002KT 08/08 A3009 RMK A01 T00840076  RH  095%=      5-min Rain = 0
KCA2 140801Z 30002KT 08/08 A3009 RMK A01 T00830075  RH  095%=      5-min Rain = 0
KCA2 140802Z 31002KT 08/08 A3009 RMK A01 T00830075  RH  095%=      5-min Rain = 0
KCA2 140803Z 31003KT 08/08 A3009 RMK A01 T00820075  RH  095%=      5-min Rain = 0
KCA2 140804Z 31003KT 08/08 A3009 RMK A01 T00820075  RH  095%=      5-min Rain = 0
KCA2 140805Z 31003KT 08/07 A3009 RMK A01 T00810074  RH  095%=      5-min Rain = 0
KCA2 140806Z 31003KT 08/08 A3009 RMK A01 T00810075  RH  096%=      5-min Rain = 0
KCA2 140807Z 31004KT 08/07 A3009 RMK A01 T00810074  RH  096%=      5-min Rain = 0
KCA2 140808Z 31004KT 08/07 A3009 RMK A01 T00800074  RH  096%=      5-min Rain = 0
KCA2 140809Z 30004KT 08/07 A3009 RMK A01 T00790073  RH  096%=      5-min Rain = 0
KCA2 140810Z 30003KT 08/07 A3009 RMK A01 T00790073  RH  096%=      5-min Rain = 0
KCA2 140811Z 29003KT 08/07 A3009 RMK A01 T00790073  RH  096%=      5-min Rain = 0
KCA2 140812Z 29002KT 08/07 A3009 RMK A01 T00790074  RH  096%=      5-min Rain = 0
KCA2 140813Z 29002KT 08/07 A3009 RMK A01 T00790074  RH  096%=      5-min Rain = 0
KCA2 140814Z 29002KT 08/07 A3009 RMK A01 T00800074  RH  096%=      5-min Rain = 0
KCA2 140815Z 29002KT 08/07 A3009 RMK A01 T00800074  RH  096%=      5-min Rain = 0
KCA2 140816Z 29002KT 08/08 A3009 RMK A01 T00810075  RH  097%=      5-min Rain = 0
KCA2 140817Z 29003KT 08/08 A3009 RMK A01 T00810076  RH  097%=      5-min Rain = 0
KCA2 140818Z 29002KT 08/08 A3009 RMK A01 T00810076  RH  096%=      5-min Rain = 0
KCA2 140819Z 29002KT 08/08 A3009 RMK A01 T00810076  RH  096%=      5-min Rain = 0
KCA2 140820Z 29002KT 08/08 A3009 RMK A01 T00820076  RH  096%=      5-min Rain = 0
KCA2 140821Z 29002KT 08/08 A3009 RMK A01 T00820076  RH  096%=      5-min Rain = 0
KCA2 140822Z 30002KT 08/08 A3009 RMK A01 T00820076  RH  096%=      5-min Rain = 0
KCA2 140823Z 29003KT 08/08 A3009 RMK A01 T00820076  RH  096%=      5-min Rain = 0
KCA2 140824Z 30003KT 08/08 A3009 RMK A01 T00820076  RH  096%=      5-min Rain = 0
KCA2 140825Z 30003KT 08/08 A301 RMK A01 T00820076  RH  096%=      5-min Rain = 0
KCA2 140826Z 30003KT 08/08 A301 RMK A01 T00820076  RH  096%=      5-min Rain = 0
KCA2 140827Z 30003KT 08/08 A301 RMK A01 T00820076  RH  096%=      5-min Rain = 0
KCA2 140828Z 30003KT 08/08 A301 RMK A01 T00820076  RH  096%=      5-min Rain = 0
KCA2 140829Z 30003KT 08/08 A301 RMK A01 T00820076  RH  096%=      5-min Rain = 0
KCA2 140830Z 31003KT 08/08 A301 RMK A01 T00820076  RH  096%=      5-min Rain = 0
KCA2 140831Z 32003KT 08/08 A301 RMK A01 T00820076  RH  096%=      5-min Rain = 0
KCA2 140832Z 32003KT 08/08 A301 RMK A01 T00820076  RH  096%=      5-min Rain = 0
KCA2 140833Z 32003KT 08/08 A301 RMK A01 T00810075  RH  096%=      5-min Rain = 0
KCA2 140834Z 32003KT 08/08 A301 RMK A01 T00820076  RH  096%=      5-min Rain = 0
KCA2 140835Z 33003KT 08/08 A301 RMK A01 T00820075  RH  096%=      5-min Rain = 0
KCA2 140836Z 33003KT 08/08 A301 RMK A01 T00820075  RH  096%=      5-min Rain = 0
KCA2 140837Z 33003KT 08/08 A301 RMK A01 T00820075  RH  096%=      5-min Rain = 0
KCA2 140838Z 32003KT 08/08 A301 RMK A01 T00820075  RH  096%=      5-min Rain = 0
KCA2 140839Z 33003KT 08/08 A301 RMK A01 T00820075  RH  096%=      5-min Rain = 0
KCA2 140840Z 33003KT 08/08 A301 RMK A01 T00820075  RH  096%=      5-min Rain = 0
KCA2 140841Z 34003KT 08/08 A301 RMK A01 T00820075  RH  095%=      5-min Rain = 0
KCA2 140842Z 33003KT 08/08 A301 RMK A01 T00820075  RH  095%=      5-min Rain = 0
KCA2 140843Z 34002KT 08/08 A301 RMK A01 T00820075  RH  095%=      5-min Rain = 0
KCA2 140844Z 34003KT 08/08 A301 RMK A01 T00820075  RH  095%=      5-min Rain = 0
KCA2 140845Z 34003KT 08/08 A301 RMK A01 T00820075  RH  095%=      5-min Rain = 0
KCA2 140846Z 34003KT 08/07 A301 RMK A01 T00810074  RH  095%=      5-min Rain = 0
KCA2 140847Z 34003KT 08/07 A301 RMK A01 T00810074  RH  095%=      5-min Rain = 0
KCA2 140848Z 34003KT 08/07 A301 RMK A01 T00810074  RH  095%=      5-min Rain = 0
KCA2 140849Z 34003KT 08/07 A301 RMK A01 T00810074  RH  095%=      5-min Rain = 0
KCA2 140850Z 34004KT 08/07 A301 RMK A01 T00810073  RH  095%=      5-min Rain = 0
KCA2 140851Z 33004KT 08/07 A301 RMK A01 T00810073  RH  095%=      5-min Rain = 0
KCA2 140852Z 33004KT 08/07 A301 RMK A01 T00810073  RH  095%=      5-min Rain = 0
KCA2 140853Z 33004KT 08/07 A301 RMK A01 T00810073  RH  095%=      5-min Rain = 0
KCA2 140854Z 33004KT 08/07 A301 RMK A01 T00810072  RH  095%=      5-min Rain = 0
KCA2 140855Z 34004KT 08/07 A3009 RMK A01 T00810072  RH  095%=      5-min Rain = 0
KCA2 140856Z 33004KT 08/07 A3009 RMK A01 T00800072  RH  095%=      5-min Rain = 0
KCA2 140857Z 34004KT 08/07 A3009 RMK A01 T00800072  RH  095%=      5-min Rain = 0
KCA2 140858Z 33004KT 08/07 A3009 RMK A01 T00800072  RH  095%=      5-min Rain = 0
KCA2 140859Z 33004KT 08/07 A3009 RMK A01 T00790071  RH  095%=      5-min Rain = 0
KCA2 140900Z 33004KT 08/07 A3009 RMK A01 T00790071  RH  095%=      5-min Rain = 0
KCA2 140901Z 33004KT 08/07 A3009 RMK A01 T00790071  RH  095%=      5-min Rain = 0
KCA2 140902Z 33004KT 08/07 A3009 RMK A01 T00790071  RH  095%=      5-min Rain = 0
KCA2 140903Z 33005KT 08/07 A301 RMK A01 T00790071  RH  095%=      5-min Rain = 0
KCA2 140904Z 33004KT 08/07 A301 RMK A01 T00790071  RH  095%=      5-min Rain = 0
KCA2 140905Z 33004KT 08/07 A301 RMK A01 T00780071  RH  095%=      5-min Rain = 0
KCA2 140906Z 33005KT 08/07 A3009 RMK A01 T00780071  RH  095%=      5-min Rain = 0
KCA2 140907Z 33005KT 08/07 A3009 RMK A01 T00780071  RH  095%=      5-min Rain = 0
KCA2 140908Z 33005KT 08/07 A3009 RMK A01 T00780071  RH  095%=      5-min Rain = 0
KCA2 140909Z 33005KT 08/07 A301 RMK A01 T00780071  RH  095%=      5-min Rain = 0
KCA2 140910Z 33005KT 08/07 A301 RMK A01 T00780071  RH  095%=      5-min Rain = 0
KCA2 140911Z 33005KT 08/07 A301 RMK A01 T00770070  RH  095%=      5-min Rain = 0
KCA2 140912Z 33005KT 08/07 A301 RMK A01 T00770070  RH  095%=      5-min Rain = 0
KCA2 140913Z 33005KT 08/07 A301 RMK A01 T00770070  RH  095%=      5-min Rain = 0
KCA2 140914Z 33005KT 08/07 A301 RMK A01 T00770070  RH  096%=      5-min Rain = 0
KCA2 140915Z 34005KT 08/07 A301 RMK A01 T00770071  RH  096%=      5-min Rain = 0
KCA2 140916Z 34005KT 08/07 A301 RMK A01 T00770071  RH  096%=      5-min Rain = 0
KCA2 140917Z 34005KT 08/07 A301 RMK A01 T00770071  RH  096%=      5-min Rain = 0
KCA2 140918Z 34004KT 08/07 A301 RMK A01 T00780071  RH  095%=      5-min Rain = 0
KCA2 140919Z 33004KT 08/07 A301 RMK A01 T00780071  RH  095%=      5-min Rain = 0
KCA2 140920Z 33004KT 08/07 A301 RMK A01 T00780071  RH  095%=      5-min Rain = 0
KCA2 140921Z 33004KT 08/07 A301 RMK A01 T00780071  RH  095%=      5-min Rain = 0
KCA2 140922Z 33004KT 08/07 A301 RMK A01 T00780070  RH  095%=      5-min Rain = 0
KCA2 140923Z 33004KT 08/07 A301 RMK A01 T00780070  RH  095%=      5-min Rain = 0
KCA2 140924Z 33004KT 08/07 A301 RMK A01 T00770069  RH  095%=      5-min Rain = 0
KCA2 140925Z 34004KT 08/07 A301 RMK A01 T00770069  RH  095%=      5-min Rain = 0
KCA2 140926Z 33004KT 08/07 A301 RMK A01 T00770069  RH  095%=      5-min Rain = 0
KCA2 140927Z 34004KT 08/07 A301 RMK A01 T00770070  RH  095%=      5-min Rain = 0
KCA2 140928Z 33004KT 08/07 A301 RMK A01 T00770069  RH  095%=      5-min Rain = 0
KCA2 140929Z 33004KT 08/07 A301 RMK A01 T00760069  RH  095%=      5-min Rain = 0
KCA2 140930Z 33004KT 08/07 A301 RMK A01 T00760069  RH  095%=      5-min Rain = 0
KCA2 140931Z 33004KT 08/07 A301 RMK A01 T00760069  RH  095%=      5-min Rain = 0
KCA2 140932Z 33004KT 08/07 A301 RMK A01 T00750069  RH  095%=      5-min Rain = 0
KCA2 140933Z 33004KT 08/07 A301 RMK A01 T00750069  RH  096%=      5-min Rain = 0
KCA2 140934Z 33003KT 08/07 A301 RMK A01 T00750069  RH  096%=      5-min Rain = 0
KCA2 140935Z 33003KT 08/07 A301 RMK A01 T00750069  RH  096%=      5-min Rain = 0
KCA2 140936Z 34003KT 08/07 A301 RMK A01 T00750069  RH  096%=      5-min Rain = 0
KCA2 140937Z 34002KT 08/07 A301 RMK A01 T00750069  RH  096%=      5-min Rain = 0
KCA2 140938Z 34003KT 08/07 A301 RMK A01 T00750069  RH  096%=      5-min Rain = 0
KCA2 140939Z 34003KT 08/07 A301 RMK A01 T00750069  RH  096%=      5-min Rain = 0
KCA2 140940Z 33003KT 08/07 A301 RMK A01 T00750069  RH  096%=      5-min Rain = 0
KCA2 140941Z 34004KT 08/07 A301 RMK A01 T00750069  RH  096%=      5-min Rain = 0
KCA2 140942Z 34003KT 08/07 A301 RMK A01 T00760070  RH  096%=      5-min Rain = 0
KCA2 140943Z 34003KT 08/07 A301 RMK A01 T00760069  RH  096%=      5-min Rain = 0
KCA2 140944Z 34003KT 08/07 A301 RMK A01 T00760069  RH  096%=      5-min Rain = 0
KCA2 140945Z 34003KT 08/07 A301 RMK A01 T00750068  RH  096%=      5-min Rain = 0
KCA2 140946Z 35003KT 08/07 A301 RMK A01 T00750068  RH  096%=      5-min Rain = 0
KCA2 140947Z 35002KT 08/07 A301 RMK A01 T00750068  RH  096%=      5-min Rain = 0
KCA2 140948Z 35002KT 08/07 A301 RMK A01 T00750068  RH  096%=      5-min Rain = 0
KCA2 140949Z 34002KT 07/07 A301 RMK A01 T00740068  RH  096%=      5-min Rain = 0
KCA2 140950Z 34001KT 07/07 A301 RMK A01 T00740067  RH  096%=      5-min Rain = 0
KCA2 140951Z 32001KT 07/07 A301 RMK A01 T00730067  RH  096%=      5-min Rain = 0
KCA2 140952Z 32001KT 07/07 A301 RMK A01 T00730066  RH  095%=      5-min Rain = 0
KCA2 140953Z 29001KT 07/07 A301 RMK A01 T00720065  RH  095%=      5-min Rain = 0
KCA2 140954Z 28002KT 07/07 A301 RMK A01 T00710065  RH  096%=      5-min Rain = 0
KCA2 140955Z 29002KT 07/07 A301 RMK A01 T00710065  RH  096%=      5-min Rain = 0
KCA2 140956Z 29002KT 07/07 A301 RMK A01 T00710065  RH  096%=      5-min Rain = 0
KCA2 140957Z 30002KT 07/06 A301 RMK A01 T00700064  RH  096%=      5-min Rain = 0
KCA2 140958Z 29002KT 07/07 A301 RMK A01 T00700065  RH  096%=      5-min Rain = 0
KCA2 140959Z 29002KT 07/07 A301 RMK A01 T00700065  RH  096%=      5-min Rain = 0
KCA2 141000Z 30002KT 07/06 A301 RMK A01 T00700064  RH  096%=      5-min Rain = 0
KCA2 141001Z 29002KT 07/06 A301 RMK A01 T00690064  RH  097%=      5-min Rain = 0
KCA2 141002Z 29002KT 07/06 A301 RMK A01 T00700064  RH  097%=      5-min Rain = 0
KCA2 141003Z 30002KT 07/06 A301 RMK A01 T00690064  RH  097%=      5-min Rain = 0
KCA2 141004Z 31002KT 07/06 A301 RMK A01 T00690064  RH  097%=      5-min Rain = 0
KCA2 141005Z 31002KT 07/06 A301 RMK A01 T00690064  RH  097%=      5-min Rain = 0
KCA2 141006Z 31002KT 07/06 A301 RMK A01 T00690064  RH  097%=      5-min Rain = 0
KCA2 141007Z 32002KT 07/06 A301 RMK A01 T00690064  RH  097%=      5-min Rain = 0
KCA2 141008Z 32002KT 07/07 A301 RMK A01 T00690065  RH  097%=      5-min Rain = 0
KCA2 141009Z 33002KT 07/07 A301 RMK A01 T00690065  RH  097%=      5-min Rain = 0
KCA2 141010Z 33002KT 07/07 A301 RMK A01 T00690065  RH  097%=      5-min Rain = 0
KCA2 141011Z 33002KT 07/07 A301 RMK A01 T00690065  RH  097%=      5-min Rain = 0
KCA2 141012Z 33002KT 07/07 A3011 RMK A01 T00690065  RH  097%=      5-min Rain = 0
KCA2 141013Z 33003KT 07/06 A3011 RMK A01 T00690064  RH  097%=      5-min Rain = 0
KCA2 141014Z 33004KT 07/06 A3011 RMK A01 T00680063  RH  097%=      5-min Rain = 0
KCA2 141015Z 33004KT 07/06 A3011 RMK A01 T00680063  RH  097%=      5-min Rain = 0
KCA2 141016Z 34004KT 07/07 A3011 RMK A01 T00700065  RH  097%=      5-min Rain = 0
KCA2 141017Z 34004KT 07/07 A3011 RMK A01 T00710067  RH  097%=      5-min Rain = 0
KCA2 141018Z 34004KT 07/07 A3011 RMK A01 T00720068  RH  097%=      5-min Rain = 0
KCA2 141019Z 34004KT 07/07 A3011 RMK A01 T00730069  RH  097%=      5-min Rain = 0
KCA2 141020Z 34004KT 07/07 A3011 RMK A01 T00740070  RH  097%=      5-min Rain = 0
KCA2 141021Z 34004KT 07/07 A3011 RMK A01 T00740069  RH  097%=      5-min Rain = 0
KCA2 141022Z 33004KT 07/07 A3011 RMK A01 T00740069  RH  097%=      5-min Rain = 0
KCA2 141023Z 32003KT 07/07 A3011 RMK A01 T00730067  RH  096%=      5-min Rain = 0
KCA2 141024Z 31003KT 07/07 A3011 RMK A01 T00710065  RH  096%=      5-min Rain = 0
KCA2 141025Z 31003KT 07/06 A3011 RMK A01 T00710064  RH  096%=      5-min Rain = 0
KCA2 141026Z 31003KT 07/06 A3011 RMK A01 T00710064  RH  096%=      5-min Rain = 0
KCA2 141027Z 31003KT 07/06 A3011 RMK A01 T00700064  RH  096%=      5-min Rain = 0
KCA2 141028Z 31003KT 07/06 A3011 RMK A01 T00700064  RH  096%=      5-min Rain = 0
KCA2 141029Z 30002KT 07/06 A3011 RMK A01 T00690064  RH  096%=      5-min Rain = 0
KCA2 141030Z 30002KT 07/06 A3011 RMK A01 T00690064  RH  096%=      5-min Rain = 0
KCA2 141031Z 29002KT 07/06 A3011 RMK A01 T00690064  RH  096%=      5-min Rain = 0
KCA2 141032Z 28001KT 07/06 A3011 RMK A01 T00690064  RH  096%=      5-min Rain = 0
KCA2 141033Z 28001KT 07/06 A3011 RMK A01 T00690064  RH  097%=      5-min Rain = 0
KCA2 141034Z 28001KT 07/07 A3011 RMK A01 T00700065  RH  097%=      5-min Rain = 0
KCA2 141035Z 28001KT 07/07 A3011 RMK A01 T00700065  RH  097%=      5-min Rain = 0
KCA2 141036Z 30001KT 07/07 A3011 RMK A01 T00700065  RH  097%=      5-min Rain = 0
KCA2 141037Z 30001KT 07/07 A3011 RMK A01 T00700065  RH  097%=      5-min Rain = 0
KCA2 141038Z 27001KT 07/06 A3011 RMK A01 T00690064  RH  096%=      5-min Rain = 0
KCA2 141039Z 26002KT 07/06 A3011 RMK A01 T00680063  RH  096%=      5-min Rain = 0
KCA2 141040Z 27002KT 07/06 A3011 RMK A01 T00670062  RH  096%=      5-min Rain = 0
KCA2 141041Z 25002KT 07/06 A3011 RMK A01 T00670061  RH  096%=      5-min Rain = 0
KCA2 141042Z 26002KT 07/06 A3011 RMK A01 T00660060  RH  096%=      5-min Rain = 0
KCA2 141043Z 26002KT 07/06 A3011 RMK A01 T00650060  RH  096%=      5-min Rain = 0
KCA2 141044Z 26002KT 06/06 A3011 RMK A01 T00640059  RH  096%=      5-min Rain = 0
KCA2 141045Z 28002KT 06/06 A3011 RMK A01 T00640058  RH  096%=      5-min Rain = 0
KCA2 141046Z 28002KT 06/06 A3011 RMK A01 T00630058  RH  096%=      5-min Rain = 0
KCA2 141047Z 28002KT 06/06 A3011 RMK A01 T00620057  RH  096%=      5-min Rain = 0
KCA2 141048Z 29002KT 06/06 A3011 RMK A01 T00620058  RH  097%=      5-min Rain = 0
KCA2 141049Z 29002KT 06/06 A3011 RMK A01 T00620058  RH  097%=      5-min Rain = 0
KCA2 141050Z 32003KT 06/06 A3011 RMK A01 T00630058  RH  097%=      5-min Rain = 0
KCA2 141051Z 31003KT 06/06 A3011 RMK A01 T00640060  RH  097%=      5-min Rain = 0
KCA2 141052Z 32004KT 07/06 A3011 RMK A01 T00660062  RH  097%=      5-min Rain = 0
KCA2 141053Z 32005KT 07/07 A3011 RMK A01 T00680065  RH  098%=      5-min Rain = 0
KCA2 141054Z 32004KT 07/07 A3011 RMK A01 T00700066  RH  098%=      5-min Rain = 0
KCA2 141055Z 32005KT 07/07 A3011 RMK A01 T00700066  RH  097%=      5-min Rain = 0
KCA2 141056Z 33005KT 07/07 A3011 RMK A01 T00700066  RH  097%=      5-min Rain = 0
KCA2 141057Z 32005KT 07/07 A3011 RMK A01 T00710066  RH  097%=      5-min Rain = 0
KCA2 141058Z 32005KT 07/07 A3011 RMK A01 T00710066  RH  097%=      5-min Rain = 0
KCA2 141059Z 32006KT 07/07 A3011 RMK A01 T00710066  RH  096%=      5-min Rain = 0
KCA2 141100Z 32005KT 07/07 A3011 RMK A01 T00720066  RH  096%=      5-min Rain = 0
KCA2 141101Z 32006KT 07/07 A3011 RMK A01 T00720066  RH  096%=      5-min Rain = 0
KCA2 141102Z 32006KT 07/07 A3011 RMK A01 T00720065  RH  096%=      5-min Rain = 0
KCA2 141103Z 32005KT 07/07 A3011 RMK A01 T00720065  RH  096%=      5-min Rain = 0
KCA2 141104Z 32004KT 07/07 A3012 RMK A01 T00720065  RH  096%=      5-min Rain = 0
KCA2 141105Z 32004KT 07/07 A3012 RMK A01 T00720065  RH  095%=      5-min Rain = 0
KCA2 141106Z 32004KT 07/07 A3012 RMK A01 T00720065  RH  095%=      5-min Rain = 0
KCA2 141107Z 31004KT 07/07 A3012 RMK A01 T00720065  RH  095%=      5-min Rain = 0
KCA2 141108Z 32004KT 07/06 A3012 RMK A01 T00720064  RH  095%=      5-min Rain = 0
KCA2 141109Z 32004KT 07/07 A3012 RMK A01 T00720065  RH  095%=      5-min Rain = 0
KCA2 141110Z 32004KT 07/07 A3012 RMK A01 T00720065  RH  095%=      5-min Rain = 0
KCA2 141111Z 32004KT 07/06 A3012 RMK A01 T00710064  RH  095%=      5-min Rain = 0
KCA2 141112Z 31004KT 07/06 A3012 RMK A01 T00710064  RH  095%=      5-min Rain = 0
KCA2 141113Z 32004KT 07/06 A3012 RMK A01 T00710064  RH  095%=      5-min Rain = 0
KCA2 141114Z 31004KT 07/06 A3012 RMK A01 T00710064  RH  095%=      5-min Rain = 0
KCA2 141115Z 32004KT 07/06 A3012 RMK A01 T00700064  RH  096%=      5-min Rain = 0
KCA2 141116Z 32004KT 07/06 A3012 RMK A01 T00700064  RH  096%=      5-min Rain = 0
KCA2 141117Z 32004KT 07/06 A3012 RMK A01 T00710064  RH  096%=      5-min Rain = 0
KCA2 141118Z 32004KT 07/06 A3012 RMK A01 T00700064  RH  096%=      5-min Rain = 0
KCA2 141119Z 32004KT 07/07 A3012 RMK A01 T00710065  RH  096%=      5-min Rain = 0
KCA2 141120Z 32004KT 07/06 A3012 RMK A01 T00700064  RH  096%=      5-min Rain = 0
KCA2 141121Z 33004KT 07/06 A3012 RMK A01 T00700064  RH  096%=      5-min Rain = 0
KCA2 141122Z 33004KT 07/06 A3012 RMK A01 T00700064  RH  096%=      5-min Rain = 0
KCA2 141123Z 33004KT 07/06 A3012 RMK A01 T00700064  RH  096%=      5-min Rain = 0
KCA2 141124Z 32004KT 07/06 A3012 RMK A01 T00700064  RH  096%=      5-min Rain = 0
KCA2 141125Z 32005KT 07/07 A3012 RMK A01 T00700065  RH  096%=      5-min Rain = 0
KCA2 141126Z 32004KT 07/07 A3012 RMK A01 T00700065  RH  096%=      5-min Rain = 0
KCA2 141127Z 32004KT 07/07 A3012 RMK A01 T00700065  RH  096%=      5-min Rain = 0
KCA2 141128Z 32004KT 07/07 A3012 RMK A01 T00710065  RH  096%=      5-min Rain = 0
KCA2 141129Z 32004KT 07/06 A3012 RMK A01 T00700064  RH  096%=      5-min Rain = 0
KCA2 141130Z 32004KT 07/06 A3012 RMK A01 T00690063  RH  096%=      5-min Rain = 0
KCA2 141131Z 33004KT 07/06 A3013 RMK A01 T00690063  RH  096%=      5-min Rain = 0
KCA2 141132Z 33004KT 07/06 A3013 RMK A01 T00690063  RH  096%=      5-min Rain = 0
KCA2 141133Z 33004KT 07/06 A3013 RMK A01 T00690063  RH  096%=      5-min Rain = 0
KCA2 141134Z 33004KT 07/06 A3013 RMK A01 T00690063  RH  096%=      5-min Rain = 0
KCA2 141135Z 33004KT 07/06 A3013 RMK A01 T00690063  RH  096%=      5-min Rain = 0
KCA2 141136Z 33004KT 07/06 A3013 RMK A01 T00690063  RH  096%=      5-min Rain = 0
KCA2 141137Z 33004KT 07/06 A3013 RMK A01 T00690063  RH  096%=      5-min Rain = 0
KCA2 141138Z 33004KT 07/06 A3013 RMK A01 T00690063  RH  096%=      5-min Rain = 0
KCA2 141139Z 33004KT 07/06 A3013 RMK A01 T00680062  RH  096%=      5-min Rain = 0
KCA2 141140Z 33004KT 07/06 A3013 RMK A01 T00690063  RH  096%=      5-min Rain = 0
KCA2 141141Z 33004KT 07/06 A3013 RMK A01 T00680062  RH  096%=      5-min Rain = 0
KCA2 141142Z 33004KT 07/06 A3013 RMK A01 T00690062  RH  096%=      5-min Rain = 0
KCA2 141143Z 32005KT 07/06 A3013 RMK A01 T00680062  RH  096%=      5-min Rain = 0
KCA2 141144Z 32004KT 07/06 A3013 RMK A01 T00680062  RH  095%=      5-min Rain = 0
KCA2 141145Z 32004KT 07/06 A3013 RMK A01 T00690062  RH  095%=      5-min Rain = 0
KCA2 141146Z 32004KT 07/06 A3013 RMK A01 T00690062  RH  095%=      5-min Rain = 0
KCA2 141147Z 32004KT 07/06 A3013 RMK A01 T00680061  RH  095%=      5-min Rain = 0
KCA2 141148Z 32004KT 07/06 A3013 RMK A01 T00680061  RH  095%=      5-min Rain = 0
KCA2 141149Z 32004KT 07/06 A3013 RMK A01 T00680061  RH  095%=      5-min Rain = 0
KCA2 141150Z 33004KT 07/06 A3013 RMK A01 T00670060  RH  095%=      5-min Rain = 0
KCA2 141151Z 33004KT 07/06 A3013 RMK A01 T00670059  RH  095%=      5-min Rain = 0
KCA2 141152Z 33005KT 07/06 A3013 RMK A01 T00660059  RH  095%=      5-min Rain = 0
KCA2 141153Z 33005KT 07/06 A3014 RMK A01 T00660060  RH  096%=      5-min Rain = 0
KCA2 141154Z 33004KT 07/06 A3014 RMK A01 T00660060  RH  096%=      5-min Rain = 0
KCA2 141155Z 33005KT 07/06 A3014 RMK A01 T00660060  RH  096%=      5-min Rain = 0
KCA2 141156Z 33006KT 07/06 A3014 RMK A01 T00660060  RH  096%=      5-min Rain = 0
KCA2 141157Z 33006KT 07/06 A3014 RMK A01 T00660060  RH  096%=      5-min Rain = 0
KCA2 141158Z 33006KT 07/06 A3014 RMK A01 T00660061  RH  096%=      5-min Rain = 0
KCA2 141159Z 33006KT 07/06 A3014 RMK A01 T00660060  RH  096%=      5-min Rain = 0
KCA2 141200Z 32006KT 07/06 A3014 RMK A01 T00660060  RH  096%=      5-min Rain = 0
KCA2 141201Z 32006KT 07/06 A3014 RMK A01 T00660060  RH  096%=      5-min Rain = 0
KCA2 141202Z 32006KT 07/06 A3014 RMK A01 T00660060  RH  096%=      5-min Rain = 0
KCA2 141203Z 32006KT 07/06 A3014 RMK A01 T00660060  RH  096%=      5-min Rain = 0
KCA2 141204Z 32006KT 07/06 A3014 RMK A01 T00660060  RH  096%=      5-min Rain = 0
KCA2 141205Z 32006KT 07/06 A3014 RMK A01 T00660060  RH  096%=      5-min Rain = 0
KCA2 141206Z 32006KT 07/06 A3014 RMK A01 T00660060  RH  096%=      5-min Rain = 0
KCA2 141207Z 32006KT 07/06 A3014 RMK A01 T00660060  RH  096%=      5-min Rain = 0
KCA2 141208Z 32006KT 07/06 A3014 RMK A01 T00660060  RH  096%=      5-min Rain = 0
KCA2 141209Z 32005KT 07/06 A3014 RMK A01 T00660060  RH  096%=      5-min Rain = 0
KCA2 141210Z 33005KT 07/06 A3014 RMK A01 T00660060  RH  096%=      5-min Rain = 0
KCA2 141211Z 33005KT 07/06 A3014 RMK A01 T00660060  RH  096%=      5-min Rain = 0
KCA2 141212Z 33005KT 07/06 A3014 RMK A01 T00660060  RH  096%=      5-min Rain = 0
KCA2 141213Z 33005KT 07/06 A3014 RMK A01 T00660060  RH  096%=      5-min Rain = 0
KCA2 141214Z 33005KT 07/06 A3014 RMK A01 T00660060  RH  096%=      5-min Rain = 0
KCA2 141215Z 32005KT 07/06 A3014 RMK A01 T00660060  RH  096%=      5-min Rain = 0
KCA2 141216Z 32005KT 07/06 A3014 RMK A01 T00650060  RH  096%=      5-min Rain = 0
KCA2 141217Z 32005KT 07/06 A3014 RMK A01 T00650059  RH  096%=      5-min Rain = 0
KCA2 141218Z 33005KT 07/06 A3014 RMK A01 T00650059  RH  096%=      5-min Rain = 0
KCA2 141219Z 32004KT 07/06 A3014 RMK A01 T00650059  RH  096%=      5-min Rain = 0
KCA2 141220Z 32005KT 06/06 A3014 RMK A01 T00640059  RH  096%=      5-min Rain = 0
KCA2 141221Z 32005KT 06/06 A3014 RMK A01 T00640059  RH  096%=      5-min Rain = 0
KCA2 141222Z 33005KT 06/06 A3014 RMK A01 T00640059  RH  096%=      5-min Rain = 0
KCA2 141223Z 33005KT 07/06 A3014 RMK A01 T00650059  RH  096%=      5-min Rain = 0
KCA2 141224Z 33005KT 06/06 A3015 RMK A01 T00640059  RH  096%=      5-min Rain = 0
KCA2 141225Z 33004KT 06/06 A3015 RMK A01 T00640059  RH  096%=      5-min Rain = 0
KCA2 141226Z 34004KT 06/06 A3015 RMK A01 T00640059  RH  096%=      5-min Rain = 0
KCA2 141227Z 34004KT 06/06 A3015 RMK A01 T00640059  RH  096%=      5-min Rain = 0
KCA2 141228Z 35004KT 06/06 A3015 RMK A01 T00640059  RH  096%=      5-min Rain = 0
KCA2 141229Z 34004KT 06/06 A3015 RMK A01 T00640059  RH  096%=      5-min Rain = 0
KCA2 141230Z 34004KT 06/06 A3015 RMK A01 T00640059  RH  096%=      5-min Rain = 0
KCA2 141231Z 35004KT 06/06 A3015 RMK A01 T00640059  RH  096%=      5-min Rain = 0
KCA2 141232Z 34002KT 07/06 A3015 RMK A01 T00650059  RH  096%=      5-min Rain = 0
KCA2 141233Z 33002KT 06/06 A3015 RMK A01 T00640058  RH  096%=      5-min Rain = 0
KCA2 141234Z 32002KT 06/06 A3015 RMK A01 T00640058  RH  096%=      5-min Rain = 0
KCA2 141235Z 32002KT 06/06 A3015 RMK A01 T00620056  RH  096%=      5-min Rain = 0
KCA2 141236Z 31002KT 06/06 A3015 RMK A01 T00610055  RH  096%=      5-min Rain = 0
KCA2 141237Z 32002KT 06/05 A3016 RMK A01 T00610054  RH  096%=      5-min Rain = 0
KCA2 141238Z 32002KT 06/05 A3016 RMK A01 T00600054  RH  096%=      5-min Rain = 0
KCA2 141239Z 34002KT 06/05 A3016 RMK A01 T00590053  RH  096%=      5-min Rain = 0
KCA2 141240Z 33002KT 06/05 A3016 RMK A01 T00590054  RH  096%=      5-min Rain = 0
KCA2 141241Z 32002KT 06/05 A3016 RMK A01 T00590053  RH  096%=      5-min Rain = 0
KCA2 141242Z 33002KT 06/05 A3016 RMK A01 T00580053  RH  096%=      5-min Rain = 0
KCA2 141243Z 33003KT 06/05 A3016 RMK A01 T00590053  RH  096%=      5-min Rain = 0
KCA2 141244Z 33003KT 06/05 A3016 RMK A01 T00580053  RH  096%=      5-min Rain = 0
KCA2 141245Z 32002KT 06/05 A3016 RMK A01 T00580053  RH  096%=      5-min Rain = 0
KCA2 141246Z 34003KT 06/05 A3016 RMK A01 T00580053  RH  097%=      5-min Rain = 0
KCA2 141247Z 34003KT 06/05 A3016 RMK A01 T00580053  RH  097%=      5-min Rain = 0
KCA2 141248Z 34003KT 06/05 A3016 RMK A01 T00590054  RH  097%=      5-min Rain = 0
KCA2 141249Z 33003KT 06/05 A3016 RMK A01 T00590054  RH  097%=      5-min Rain = 0
KCA2 141250Z 33003KT 06/05 A3016 RMK A01 T00590054  RH  097%=      5-min Rain = 0
KCA2 141251Z 33003KT 06/05 A3017 RMK A01 T00590054  RH  097%=      5-min Rain = 0
KCA2 141252Z 33003KT 06/05 A3017 RMK A01 T00590054  RH  097%=      5-min Rain = 0
KCA2 141253Z 33003KT 06/06 A3017 RMK A01 T00590055  RH  097%=      5-min Rain = 0
KCA2 141254Z 33003KT 06/06 A3017 RMK A01 T00590055  RH  097%=      5-min Rain = 0
KCA2 141255Z 33003KT 06/05 A3017 RMK A01 T00590054  RH  097%=      5-min Rain = 0
KCA2 141256Z 30002KT 06/05 A3017 RMK A01 T00590054  RH  097%=      5-min Rain = 0
KCA2 141257Z 27002KT 06/05 A3017 RMK A01 T00590054  RH  097%=      5-min Rain = 0
KCA2 141258Z 27002KT 06/05 A3017 RMK A01 T00570052  RH  097%=      5-min Rain = 0
KCA2 141259Z 27002KT 06/05 A3017 RMK A01 T00570052  RH  097%=      5-min Rain = 0
KCA2 141300Z 28003KT 06/05 A3017 RMK A01 T00570052  RH  097%=      5-min Rain = 0
KCA2 141301Z 28003KT 06/05 A3017 RMK A01 T00560051  RH  097%=      5-min Rain = 0
KCA2 141302Z 29003KT 06/05 A3017 RMK A01 T00550050  RH  097%=      5-min Rain = 0
KCA2 141303Z 29003KT 06/05 A3017 RMK A01 T00550050  RH  097%=      5-min Rain = 0
KCA2 141304Z 29003KT 06/05 A3017 RMK A01 T00550050  RH  097%=      5-min Rain = 0
KCA2 141305Z 28002KT 06/05 A3017 RMK A01 T00560052  RH  097%=      5-min Rain = 0
KCA2 141306Z 28003KT 06/05 A3017 RMK A01 T00560052  RH  097%=      5-min Rain = 0
KCA2 141307Z 28003KT 06/05 A3017 RMK A01 T00560052  RH  097%=      5-min Rain = 0
KCA2 141308Z 28003KT 06/05 A3017 RMK A01 T00560052  RH  097%=      5-min Rain = 0
KCA2 141309Z 27003KT 06/05 A3017 RMK A01 T00560052  RH  097%=      5-min Rain = 0
KCA2 141310Z 28003KT 06/05 A3017 RMK A01 T00570053  RH  097%=      5-min Rain = 0
KCA2 141311Z 27003KT 06/05 A3017 RMK A01 T00560052  RH  097%=      5-min Rain = 0
KCA2 141312Z 28003KT 06/05 A3018 RMK A01 T00560052  RH  097%=      5-min Rain = 0
KCA2 141313Z 27003KT 06/05 A3018 RMK A01 T00560052  RH  097%=      5-min Rain = 0
KCA2 141314Z 28004KT 06/05 A3018 RMK A01 T00560052  RH  097%=      5-min Rain = 0
KCA2 141315Z 28004KT 06/05 A3018 RMK A01 T00560052  RH  097%=      5-min Rain = 0.01
KCA2 141316Z 28004KT 06/05 A3018 RMK A01 T00560052  RH  097%=      5-min Rain = 0
KCA2 141317Z 29004KT 06/05 A3018 RMK A01 T00560052  RH  097%=      5-min Rain = 0
KCA2 141318Z 29004KT 06/05 A3018 RMK A01 T00560052  RH  097%=      5-min Rain = 0
KCA2 141319Z 30004KT 06/05 A3018 RMK A01 T00560052  RH  097%=      5-min Rain = 0
KCA2 141320Z 31004KT 06/05 A3018 RMK A01 T00560052  RH  097%=      5-min Rain = 0
KCA2 141321Z 31004KT 06/05 A3018 RMK A01 T00560052  RH  097%=      5-min Rain = 0
KCA2 141322Z 32004KT 06/05 A3018 RMK A01 T00560052  RH  097%=      5-min Rain = 0
KCA2 141323Z 32003KT 06/05 A3018 RMK A01 T00560052  RH  097%=      5-min Rain = 0
KCA2 141324Z 33003KT 06/05 A3018 RMK A01 T00570053  RH  097%=      5-min Rain = 0
KCA2 141325Z 33003KT 06/05 A3018 RMK A01 T00570053  RH  097%=      5-min Rain = 0
KCA2 141326Z 34004KT 06/05 A3018 RMK A01 T00570054  RH  098%=      5-min Rain = 0
KCA2 141327Z 33004KT 06/05 A3018 RMK A01 T00580054  RH  098%=      5-min Rain = 0
KCA2 141328Z 34004KT 06/06 A3018 RMK A01 T00580055  RH  098%=      5-min Rain = 0
KCA2 141329Z 33003KT 06/06 A3018 RMK A01 T00590055  RH  098%=      5-min Rain = 0
KCA2 141330Z 33004KT 06/06 A3018 RMK A01 T00600056  RH  098%=      5-min Rain = 0
KCA2 141331Z 33003KT 06/06 A3018 RMK A01 T00600056  RH  097%=      5-min Rain = 0
KCA2 141332Z 33003KT 06/06 A3018 RMK A01 T00600056  RH  097%=      5-min Rain = 0
KCA2 141333Z 33003KT 06/06 A3019 RMK A01 T00600055  RH  097%=      5-min Rain = 0
KCA2 141334Z 33003KT 06/06 A3019 RMK A01 T00600055  RH  097%=      5-min Rain = 0
KCA2 141335Z 33003KT 06/05 A3019 RMK A01 T00590054  RH  096%=      5-min Rain = 0
KCA2 141336Z 33004KT 06/05 A3019 RMK A01 T00590054  RH  096%=      5-min Rain = 0
KCA2 141337Z 33004KT 06/05 A3019 RMK A01 T00590054  RH  096%=      5-min Rain = 0
KCA2 141338Z 33004KT 06/05 A3019 RMK A01 T00600054  RH  096%=      5-min Rain = 0
KCA2 141339Z 34004KT 06/06 A3019 RMK A01 T00600055  RH  096%=      5-min Rain = 0
KCA2 141340Z 34004KT 06/06 A3019 RMK A01 T00600055  RH  096%=      5-min Rain = 0
KCA2 141341Z 34004KT 06/06 A3019 RMK A01 T00610056  RH  096%=      5-min Rain = 0
KCA2 141342Z 34004KT 06/06 A3019 RMK A01 T00620056  RH  096%=      5-min Rain = 0
KCA2 141343Z 34005KT 06/06 A3019 RMK A01 T00630057  RH  096%=      5-min Rain = 0
KCA2 141344Z 33005KT 06/06 A3019 RMK A01 T00640058  RH  096%=      5-min Rain = 0
KCA2 141345Z 33005KT 06/06 A3019 RMK A01 T00640058  RH  096%=      5-min Rain = 0
KCA2 141346Z 33005KT 06/06 A3019 RMK A01 T00640058  RH  095%=      5-min Rain = 0
KCA2 141347Z 33004KT 06/06 A3019 RMK A01 T00640057  RH  095%=      5-min Rain = 0
KCA2 141348Z 32004KT 06/06 A3019 RMK A01 T00640057  RH  095%=      5-min Rain = 0
KCA2 141349Z 32004KT 06/06 A3019 RMK A01 T00640055  RH  095%=      5-min Rain = 0
KCA2 141350Z 32004KT 06/05 A3019 RMK A01 T00630054  RH  094%=      5-min Rain = 0
KCA2 141351Z 33004KT 06/06 A3019 RMK A01 T00630055  RH  095%=      5-min Rain = 0
KCA2 141352Z 32004KT 06/06 A3019 RMK A01 T00630055  RH  095%=      5-min Rain = 0
KCA2 141353Z 31003KT 06/05 A3019 RMK A01 T00620054  RH  094%=      5-min Rain = 0
KCA2 141354Z 30002KT 06/05 A3019 RMK A01 T00600052  RH  094%=      5-min Rain = 0
KCA2 141355Z 29002KT 06/05 A3019 RMK A01 T00600052  RH  095%=      5-min Rain = 0
KCA2 141356Z 29002KT 06/05 A302 RMK A01 T00600053  RH  095%=      5-min Rain = 0
KCA2 141357Z 30002KT 06/05 A302 RMK A01 T00610054  RH  095%=      5-min Rain = 0
KCA2 141358Z 31001KT 06/06 A302 RMK A01 T00610055  RH  096%=      5-min Rain = 0
KCA2 141359Z 33002KT 06/06 A302 RMK A01 T00610055  RH  096%=      5-min Rain = 0
KCA2 141400Z 35002KT 06/06 A302 RMK A01 T00620056  RH  096%=      5-min Rain = 0
KCA2 141401Z 34003KT 06/06 A302 RMK A01 T00630057  RH  096%=      5-min Rain = 0
KCA2 141402Z 34002KT 07/06 A302 RMK A01 T00650060  RH  096%=      5-min Rain = 0
KCA2 141403Z 35001KT 07/06 A302 RMK A01 T00670062  RH  096%=      5-min Rain = 0
KCA2 141404Z 35001KT 07/06 A302 RMK A01 T00680063  RH  096%=      5-min Rain = 0
KCA2 141405Z 34002KT 07/06 A302 RMK A01 T00690064  RH  096%=      5-min Rain = 0
KCA2 141406Z 34001KT 07/06 A302 RMK A01 T00700064  RH  096%=      5-min Rain = 0
KCA2 141407Z 36000KT 07/06 A302 RMK A01 T00710064  RH  095%=      5-min Rain = 0
KCA2 141408Z 34002KT 07/06 A302 RMK A01 T00710064  RH  095%=      5-min Rain = 0
KCA2 141409Z 35003KT 07/06 A302 RMK A01 T00720063  RH  094%=      5-min Rain = 0
KCA2 141410Z 33003KT 07/06 A302 RMK A01 T00720063  RH  094%=      5-min Rain = 0
KCA2 141411Z 34004KT 07/06 A302 RMK A01 T00720062  RH  093%=      5-min Rain = 0
KCA2 141412Z 34005KT 07/06 A302 RMK A01 T00720062  RH  094%=      5-min Rain = 0
KCA2 141413Z 34006KT 07/07 A302 RMK A01 T00740066  RH  094%=      5-min Rain = 0
KCA2 141414Z 34007KT 08/07 A3021 RMK A01 T00760065  RH  093%=      5-min Rain = 0
KCA2 141415Z 34007KT 08/07 A3021 RMK A01 T00770066  RH  092%=      5-min Rain = 0
KCA2 141416Z 34007KT 08/07 A3021 RMK A01 T00780065  RH  092%=      5-min Rain = 0
KCA2 141417Z 34006KT 08/07 A3021 RMK A01 T00780065  RH  091%=      5-min Rain = 0
KCA2 141418Z 34006KT 08/07 A3021 RMK A01 T00790065  RH  091%=      5-min Rain = 0
KCA2 141419Z 34005KT 08/06 A3021 RMK A01 T00790064  RH  091%=      5-min Rain = 0
KCA2 141420Z 34006KT 08/07 A3021 RMK A01 T00790065  RH  091%=      5-min Rain = 0
KCA2 141421Z 34007KT 08/07 A3021 RMK A01 T00800065  RH  091%=      5-min Rain = 0
KCA2 141422Z 34006KT 08/07 A3021 RMK A01 T00800065  RH  090%=      5-min Rain = 0
KCA2 141423Z 35006KT 08/07 A3021 RMK A01 T00800066  RH  091%=      5-min Rain = 0
KCA2 141424Z 35006KT 08/07 A3021 RMK A01 T00810066  RH  091%=      5-min Rain = 0
KCA2 141425Z 34006KT 08/07 A3021 RMK A01 T00810066  RH  090%=      5-min Rain = 0
KCA2 141426Z 34006KT 08/07 A3021 RMK A01 T00810067  RH  091%=      5-min Rain = 0
KCA2 141427Z 35006KT 08/07 A3021 RMK A01 T00820067  RH  091%=      5-min Rain = 0
KCA2 141428Z 34006KT 08/07 A3021 RMK A01 T00820067  RH  090%=      5-min Rain = 0
KCA2 141429Z 35006KT 08/07 A3021 RMK A01 T00820068  RH  090%=      5-min Rain = 0
KCA2 141430Z 34006KT 08/07 A3021 RMK A01 T00830067  RH  090%=      5-min Rain = 0
KCA2 141431Z 34006KT 08/07 A3021 RMK A01 T00830067  RH  090%=      5-min Rain = 0
KCA2 141432Z 34006KT 08/07 A3021 RMK A01 T00830068  RH  090%=      5-min Rain = 0
KCA2 141433Z 34005KT 08/07 A3021 RMK A01 T00830068  RH  090%=      5-min Rain = 0
KCA2 141434Z 34006KT 08/07 A3021 RMK A01 T00840069  RH  090%=      5-min Rain = 0
KCA2 141435Z 34007KT 08/07 A3021 RMK A01 T00840068  RH  090%=      5-min Rain = 0
KCA2 141436Z 34007KT 08/07 A3021 RMK A01 T00840068  RH  090%=      5-min Rain = 0
KCA2 141437Z 34006KT 08/07 A3021 RMK A01 T00840068  RH  090%=      5-min Rain = 0
KCA2 141438Z 34008KT 08/07 A3021 RMK A01 T00840069  RH  090%=      5-min Rain = 0
KCA2 141439Z 34006KT 09/07 A3021 RMK A01 T00850068  RH  090%=      5-min Rain = 0
KCA2 141440Z 34007KT 09/07 A3021 RMK A01 T00850069  RH  090%=      5-min Rain = 0
KCA2 141441Z 34006KT 09/07 A3021 RMK A01 T00850069  RH  090%=      5-min Rain = 0
KCA2 141442Z 34007KT 09/07 A3021 RMK A01 T00860070  RH  090%=      5-min Rain = 0
KCA2 141443Z 34007KT 09/07 A3021 RMK A01 T00860070  RH  089%=      5-min Rain = 0
KCA2 141444Z 34007KT 09/07 A3022 RMK A01 T00860070  RH  089%=      5-min Rain = 0
KCA2 141445Z 34008KT 09/07 A3022 RMK A01 T00860069  RH  089%=      5-min Rain = 0
KCA2 141446Z 33008KT 09/07 A3022 RMK A01 T00860069  RH  089%=      5-min Rain = 0
KCA2 141447Z 35008KT 09/07 A3022 RMK A01 T00860069  RH  089%=      5-min Rain = 0
KCA2 141448Z 34007KT 09/07 A3022 RMK A01 T00870069  RH  089%=      5-min Rain = 0
KCA2 141449Z 34008KT 09/07 A3022 RMK A01 T00870070  RH  089%=      5-min Rain = 0
KCA2 141450Z 35008KT 09/07 A3022 RMK A01 T00870069  RH  089%=      5-min Rain = 0
KCA2 141451Z 34009KT 09/07 A3022 RMK A01 T00880070  RH  089%=      5-min Rain = 0
KCA2 141452Z 34009KT 09/07 A3022 RMK A01 T00880070  RH  088%=      5-min Rain = 0
KCA2 141453Z 34009KT 09/07 A3022 RMK A01 T00880070  RH  088%=      5-min Rain = 0
KCA2 141454Z 34008KT 09/07 A3022 RMK A01 T00890070  RH  088%=      5-min Rain = 0
KCA2 141455Z 34007KT 09/07 A3022 RMK A01 T00890070  RH  088%=      5-min Rain = 0
KCA2 141456Z 34008KT 09/07 A3022 RMK A01 T00900072  RH  089%=      5-min Rain = 0
KCA2 141457Z 33007KT 09/07 A3022 RMK A01 T00900071  RH  088%=      5-min Rain = 0
KCA2 141458Z 34006KT 09/07 A3022 RMK A01 T00910073  RH  088%=      5-min Rain = 0
KCA2 141459Z 34005KT 09/07 A3022 RMK A01 T00910074  RH  089%=      5-min Rain = 0
KCA2 141500Z 34008KT 09/08 A3022 RMK A01 T00920075  RH  089%=      5-min Rain = 0
KCA2 141501Z 33008KT 09/07 A3022 RMK A01 T00930073  RH  087%=      5-min Rain = 0
KCA2 141502Z 33008KT 09/07 A3022 RMK A01 T00930072  RH  087%=      5-min Rain = 0
KCA2 141503Z 33007KT 09/07 A3022 RMK A01 T00920072  RH  087%=      5-min Rain = 0
KCA2 141504Z 33007KT 09/07 A3022 RMK A01 T00920074  RH  088%=      5-min Rain = 0
KCA2 141505Z 33008KT 09/07 A3022 RMK A01 T00930074  RH  088%=      5-min Rain = 0
KCA2 141506Z 33009KT 09/07 A3022 RMK A01 T00930073  RH  087%=      5-min Rain = 0
KCA2 141507Z 34008KT 09/07 A3022 RMK A01 T00930073  RH  087%=      5-min Rain = 0
KCA2 141508Z 34007KT 09/07 A3022 RMK A01 T00930073  RH  087%=      5-min Rain = 0
KCA2 141509Z 34006KT 09/08 A3023 RMK A01 T00940075  RH  088%=      5-min Rain = 0
KCA2 141510Z 33007KT 10/08 A3023 RMK A01 T00950076  RH  088%=      5-min Rain = 0
KCA2 141511Z 34008KT 10/08 A3023 RMK A01 T00960075  RH  087%=      5-min Rain = 0
KCA2 141512Z 33008KT 10/07 A3023 RMK A01 T00950073  RH  086%=      5-min Rain = 0
KCA2 141513Z 33007KT 10/07 A3023 RMK A01 T00950074  RH  087%=      5-min Rain = 0
KCA2 141514Z 33006KT 10/08 A3023 RMK A01 T00950075  RH  087%=      5-min Rain = 0
KCA2 141515Z 32005KT 10/08 A3023 RMK A01 T00970078  RH  088%=      5-min Rain = 0
KCA2 141516Z 33007KT 10/08 A3023 RMK A01 T00980079  RH  088%=      5-min Rain = 0
KCA2 141517Z 32007KT 10/08 A3023 RMK A01 T00980076  RH  086%=      5-min Rain = 0
KCA2 141518Z 32007KT 10/08 A3023 RMK A01 T00980075  RH  086%=      5-min Rain = 0
KCA2 141519Z 33006KT 10/08 A3023 RMK A01 T00980078  RH  087%=      5-min Rain = 0
KCA2 141520Z 33006KT 10/08 A3023 RMK A01 T00990079  RH  087%=      5-min Rain = 0
KCA2 141521Z 32006KT 10/08 A3023 RMK A01 T01000078  RH  086%=      5-min Rain = 0
KCA2 141522Z 32006KT 10/08 A3023 RMK A01 T01000077  RH  086%=      5-min Rain = 0
KCA2 141523Z 32006KT 10/08 A3023 RMK A01 T01000078  RH  086%=      5-min Rain = 0
KCA2 141524Z 32007KT 10/08 A3023 RMK A01 T01010077  RH  085%=      5-min Rain = 0
KCA2 141525Z 32007KT 10/08 A3024 RMK A01 T01000077  RH  086%=      5-min Rain = 0
KCA2 141526Z 33006KT 10/08 A3024 RMK A01 T01000077  RH  086%=      5-min Rain = 0
KCA2 141527Z 32006KT 10/08 A3024 RMK A01 T01010077  RH  085%=      5-min Rain = 0
KCA2 141528Z 31006KT 10/08 A3024 RMK A01 T01010079  RH  086%=      5-min Rain = 0
KCA2 141529Z 33006KT 10/08 A3024 RMK A01 T01020079  RH  086%=      5-min Rain = 0
KCA2 141530Z 32006KT 10/08 A3024 RMK A01 T01030081  RH  086%=      5-min Rain = 0
KCA2 141531Z 32006KT 10/08 A3024 RMK A01 T01040082  RH  086%=      5-min Rain = 0
KCA2 141532Z 33008KT 11/08 A3024 RMK A01 T01050080  RH  084%=      5-min Rain = 0
KCA2 141533Z 32007KT 11/08 A3024 RMK A01 T01050079  RH  084%=      5-min Rain = 0
KCA2 141534Z 32006KT 11/08 A3024 RMK A01 T01050078  RH  083%=      5-min Rain = 0
KCA2 141535Z 32006KT 11/08 A3024 RMK A01 T01050081  RH  085%=      5-min Rain = 0
KCA2 141536Z 32008KT 11/08 A3024 RMK A01 T01070081  RH  084%=      5-min Rain = 0
KCA2 141537Z 32008KT 11/08 A3024 RMK A01 T01070079  RH  083%=      5-min Rain = 0
KCA2 141538Z 31007KT 11/08 A3025 RMK A01 T01070079  RH  083%=      5-min Rain = 0
KCA2 141539Z 31006KT 11/08 A3025 RMK A01 T01070080  RH  083%=      5-min Rain = 0
KCA2 141540Z 31006KT 11/08 A3025 RMK A01 T01070080  RH  084%=      5-min Rain = 0
KCA2 141541Z 31008KT 11/08 A3025 RMK A01 T01080081  RH  083%=      5-min Rain = 0
KCA2 141542Z 31006KT 11/08 A3025 RMK A01 T01090080  RH  083%=      5-min Rain = 0
KCA2 141543Z 33006KT 11/08 A3025 RMK A01 T01100082  RH  083%=      5-min Rain = 0
KCA2 141544Z 32007KT 11/08 A3025 RMK A01 T01100080  RH  082%=      5-min Rain = 0
KCA2 141545Z 31007KT 11/08 A3025 RMK A01 T01110081  RH  082%=      5-min Rain = 0
KCA2 141546Z 30006KT 11/08 A3025 RMK A01 T01110081  RH  082%=      5-min Rain = 0
KCA2 141547Z 33007KT 11/08 A3025 RMK A01 T01110082  RH  082%=      5-min Rain = 0
KCA2 141548Z 32007KT 11/08 A3025 RMK A01 T01120081  RH  081%=      5-min Rain = 0
KCA2 141549Z 33006KT 11/08 A3025 RMK A01 T01120081  RH  081%=      5-min Rain = 0
KCA2 141550Z 31007KT 11/08 A3025 RMK A01 T01130083  RH  082%=      5-min Rain = 0
KCA2 141551Z 33008KT 11/08 A3025 RMK A01 T01140081  RH  080%=      5-min Rain = 0
KCA2 141552Z 32007KT 11/08 A3026 RMK A01 T01140082  RH  081%=      5-min Rain = 0
KCA2 141553Z 32007KT 12/08 A3026 RMK A01 T01150084  RH  081%=      5-min Rain = 0
KCA2 141554Z 32006KT 12/08 A3026 RMK A01 T01150081  RH  079%=      5-min Rain = 0
KCA2 141555Z 33007KT 12/08 A3026 RMK A01 T01150082  RH  080%=      5-min Rain = 0
KCA2 141556Z 31007KT 12/09 A3026 RMK A01 T01160085  RH  081%=      5-min Rain = 0
KCA2 141557Z 30008KT 12/08 A3026 RMK A01 T01160082  RH  079%=      5-min Rain = 0
KCA2 141558Z 30008KT 12/08 A3026 RMK A01 T01160082  RH  080%=      5-min Rain = 0
KCA2 141559Z 30008KT 12/08 A3026 RMK A01 T01160083  RH  080%=      5-min Rain = 0
KCA2 141600Z 30007KT 12/08 A3026 RMK A01 T01160082  RH  079%=      5-min Rain = 0
KCA2 141601Z 30008KT 12/08 A3026 RMK A01 T01160084  RH  080%=      5-min Rain = 0
KCA2 141602Z 30008KT 12/08 A3026 RMK A01 T01170082  RH  079%=      5-min Rain = 0
KCA2 141603Z 32006KT 12/09 A3026 RMK A01 T01180087  RH  081%=      5-min Rain = 0
KCA2 141604Z 33008KT 12/08 A3026 RMK A01 T01200084  RH  079%=      5-min Rain = 0
KCA2 141605Z 33009KT 12/08 A3026 RMK A01 T01200082  RH  078%=      5-min Rain = 0
KCA2 141606Z 33008KT 12/08 A3026 RMK A01 T01190081  RH  077%=      5-min Rain = 0
KCA2 141607Z 33007KT 12/08 A3026 RMK A01 T01190083  RH  079%=      5-min Rain = 0
KCA2 141608Z 33008KT 12/08 A3026 RMK A01 T01200083  RH  078%=      5-min Rain = 0
KCA2 141609Z 33009KT 12/08 A3026 RMK A01 T01200082  RH  077%=      5-min Rain = 0
KCA2 141610Z 33008KT 12/08 A3026 RMK A01 T01200082  RH  078%=      5-min Rain = 0
KCA2 141611Z 33008KT 12/08 A3026 RMK A01 T01200081  RH  077%=      5-min Rain = 0
KCA2 141612Z 33007KT 12/08 A3026 RMK A01 T01210084  RH  078%=      5-min Rain = 0
KCA2 141613Z 32007KT 12/09 A3026 RMK A01 T01220085  RH  078%=      5-min Rain = 0
KCA2 141614Z 32007KT 12/08 A3026 RMK A01 T01230084  RH  077%=      5-min Rain = 0
KCA2 141615Z 33007KT 12/08 A3026 RMK A01 T01230082  RH  076%=      5-min Rain = 0
KCA2 141616Z 32007KT 12/08 A3026 RMK A01 T01230081  RH  076%=      5-min Rain = 0
KCA2 141617Z 33008KT 12/08 A3026 RMK A01 T01240082  RH  076%=      5-min Rain = 0
KCA2 141618Z 32007KT 13/08 A3026 RMK A01 T01250084  RH  076%=      5-min Rain = 0
KCA2 141619Z 32008KT 13/08 A3026 RMK A01 T01260083  RH  075%=      5-min Rain = 0
KCA2 141620Z 32007KT 13/08 A3026 RMK A01 T01260082  RH  075%=      5-min Rain = 0
KCA2 141621Z 32007KT 13/08 A3026 RMK A01 T01250082  RH  075%=      5-min Rain = 0
KCA2 141622Z 32009KT 13/08 A3026 RMK A01 T01250081  RH  074%=      5-min Rain = 0
KCA2 141623Z 30007KT 13/08 A3026 RMK A01 T01250082  RH  075%=      5-min Rain = 0
KCA2 141624Z 29006KT 13/09 A3027 RMK A01 T01270085  RH  076%=      5-min Rain = 0
KCA2 141625Z 30005KT 13/08 A3027 RMK A01 T01260084  RH  076%=      5-min Rain = 0
KCA2 141626Z 32005KT 13/09 A3027 RMK A01 T01270088  RH  077%=      5-min Rain = 0
KCA2 141627Z 32008KT 13/08 A3027 RMK A01 T01290083  RH  074%=      5-min Rain = 0
KCA2 141628Z 32007KT 13/08 A3027 RMK A01 T01290083  RH  073%=      5-min Rain = 0
KCA2 141629Z 33007KT 13/08 A3027 RMK A01 T01290083  RH  074%=      5-min Rain = 0
KCA2 141630Z 32008KT 13/08 A3027 RMK A01 T01300082  RH  072%=      5-min Rain = 0
KCA2 141631Z 31006KT 13/08 A3027 RMK A01 T01300082  RH  073%=      5-min Rain = 0
KCA2 141632Z 30007KT 13/09 A3027 RMK A01 T01310087  RH  075%=      5-min Rain = 0
KCA2 141633Z 30007KT 13/09 A3027 RMK A01 T01320086  RH  074%=      5-min Rain = 0
KCA2 141634Z 30007KT 13/09 A3027 RMK A01 T01310085  RH  074%=      5-min Rain = 0
KCA2 141635Z 28008KT 13/09 A3027 RMK A01 T01300086  RH  074%=      5-min Rain = 0
KCA2 141636Z 29006KT 13/09 A3026 RMK A01 T01300085  RH  074%=      5-min Rain = 0
KCA2 141637Z 29007KT 13/09 A3026 RMK A01 T01300086  RH  074%=      5-min Rain = 0
KCA2 141638Z 29010KT 13/09 A3026 RMK A01 T01320086  RH  074%=      5-min Rain = 0
KCA2 141639Z 30008KT 13/09 A3027 RMK A01 T01320085  RH  073%=      5-min Rain = 0
KCA2 141640Z 29008KT 13/09 A3027 RMK A01 T01310086  RH  074%=      5-min Rain = 0
KCA2 141641Z 28010KT 13/09 A3027 RMK A01 T01320085  RH  073%=      5-min Rain = 0
KCA2 141642Z 30008KT 13/09 A3027 RMK A01 T01320086  RH  074%=      5-min Rain = 0
KCA2 141643Z 30008KT 13/08 A3027 RMK A01 T01320084  RH  073%=      5-min Rain = 0
KCA2 141644Z 32008KT 13/09 A3027 RMK A01 T01340087  RH  074%=      5-min Rain = 0
KCA2 141645Z 31008KT 14/08 A3027 RMK A01 T01360080  RH  069%=      5-min Rain = 0
KCA2 141646Z 31009KT 14/08 A3027 RMK A01 T01370082  RH  069%=      5-min Rain = 0
KCA2 141647Z 31011KT 14/08 A3027 RMK A01 T01380080  RH  068%=      5-min Rain = 0
KCA2 141648Z 32011KT 14/08 A3027 RMK A01 T01380077  RH  067%=      5-min Rain = 0
KCA2 141649Z 31009KT 14/08 A3027 RMK A01 T01370077  RH  067%=      5-min Rain = 0
KCA2 141650Z 31007KT 14/08 A3027 RMK A01 T01380082  RH  069%=      5-min Rain = 0
KCA2 141651Z 30011KT 14/08 A3027 RMK A01 T01410077  RH  066%=      5-min Rain = 0
KCA2 141652Z 31011KT 14/08 A3027 RMK A01 T01400075  RH  065%=      5-min Rain = 0
KCA2 141653Z 32010KT 14/08 A3027 RMK A01 T01390075  RH  065%=      5-min Rain = 0
KCA2 141654Z 31009KT 14/08 A3027 RMK A01 T01390077  RH  066%=      5-min Rain = 0
KCA2 141655Z 31012KT 14/08 A3027 RMK A01 T01400076  RH  065%=      5-min Rain = 0
KCA2 141656Z 30009KT 14/08 A3027 RMK A01 T01400076  RH  065%=      5-min Rain = 0
KCA2 141657Z 31009KT 14/08 A3027 RMK A01 T01400079  RH  066%=      5-min Rain = 0
KCA2 141658Z 30008KT 14/08 A3027 RMK A01 T01420080  RH  066%=      5-min Rain = 0
KCA2 141659Z 30009KT 14/08 A3027 RMK A01 T01420080  RH  066%=      5-min Rain = 0
KCA2 141700Z 30009KT 14/08 A3027 RMK A01 T01410078  RH  065%=      5-min Rain = 0
KCA2 141701Z 30008KT 14/08 A3027 RMK A01 T01410080  RH  067%=      5-min Rain = 0
KCA2 141702Z 30009KT 14/08 A3027 RMK A01 T01430084  RH  068%=      5-min Rain = 0
KCA2 141703Z 29010KT 14/08 A3027 RMK A01 T01440081  RH  066%=      5-min Rain = 0
KCA2 141704Z 29009KT 14/08 A3027 RMK A01 T01440078  RH  064%=      5-min Rain = 0
KCA2 141705Z 29007KT 14/08 A3027 RMK A01 T01440079  RH  065%=      5-min Rain = 0
KCA2 141706Z 32007KT 15/09 A3027 RMK A01 T01450085  RH  067%=      5-min Rain = 0
KCA2 141707Z 33008KT 15/08 A3027 RMK A01 T01480082  RH  064%=      5-min Rain = 0
KCA2 141708Z 32010KT 15/08 A3027 RMK A01 T01480079  RH  064%=      5-min Rain = 0
KCA2 141709Z 31010KT 15/08 A3027 RMK A01 T01460075  RH  062%=      5-min Rain = 0
KCA2 141710Z 31010KT 15/08 A3027 RMK A01 T01450076  RH  063%=      5-min Rain = 0
KCA2 141711Z 31009KT 15/08 A3027 RMK A01 T01460076  RH  063%=      5-min Rain = 0
KCA2 141712Z 30009KT 15/08 A3027 RMK A01 T01460075  RH  062%=      5-min Rain = 0
KCA2 141713Z 30008KT 15/08 A3027 RMK A01 T01460075  RH  062%=      5-min Rain = 0
KCA2 141714Z 32009KT 15/08 A3027 RMK A01 T01450076  RH  063%=      5-min Rain = 0
KCA2 141715Z 31007KT 15/07 A3027 RMK A01 T01460074  RH  062%=      5-min Rain = 0
KCA2 141716Z 30008KT 15/08 A3027 RMK A01 T01460076  RH  062%=      5-min Rain = 0
KCA2 141717Z 30007KT 15/08 A3027 RMK A01 T01460076  RH  062%=      5-min Rain = 0
KCA2 141718Z 31008KT 15/08 A3027 RMK A01 T01490078  RH  063%=      5-min Rain = 0
KCA2 141719Z 29010KT 15/08 A3027 RMK A01 T01500078  RH  062%=      5-min Rain = 0
KCA2 141720Z 29012KT 15/08 A3027 RMK A01 T01520077  RH  061%=      5-min Rain = 0
KCA2 141721Z 28010KT 15/08 A3027 RMK A01 T01510076  RH  061%=      5-min Rain = 0
KCA2 141722Z 28010KT 15/08 A3027 RMK A01 T01500075  RH  061%=      5-min Rain = 0
KCA2 141723Z 29008KT 15/08 A3027 RMK A01 T01500075  RH  061%=      5-min Rain = 0
KCA2 141724Z 32010KT 15/08 A3027 RMK A01 T01510075  RH  061%=      5-min Rain = 0
KCA2 141725Z 31008KT 15/07 A3027 RMK A01 T01520071  RH  058%=      5-min Rain = 0
KCA2 141726Z 31009KT 15/07 A3027 RMK A01 T01520071  RH  058%=      5-min Rain = 0
KCA2 141727Z 31008KT 15/07 A3027 RMK A01 T01530072  RH  059%=      5-min Rain = 0
KCA2 141728Z 29007KT 16/08 A3027 RMK A01 T01550075  RH  059%=      5-min Rain = 0
KCA2 141729Z 31008KT 16/08 A3027 RMK A01 T01580079  RH  060%=      5-min Rain = 0
KCA2 141730Z 31010KT 16/07 A3027 RMK A01 T01600073  RH  056%=      5-min Rain = 0
KCA2 141731Z 32010KT 16/07 A3027 RMK A01 T01590071  RH  056%=      5-min Rain = 0
KCA2 141732Z 30009KT 16/07 A3027 RMK A01 T01580073  RH  057%=      5-min Rain = 0
KCA2 141733Z 30008KT 16/07 A3027 RMK A01 T01580073  RH  057%=      5-min Rain = 0
KCA2 141734Z 32009KT 16/07 A3027 RMK A01 T01580071  RH  056%=      5-min Rain = 0
KCA2 141735Z 31006KT 16/06 A3027 RMK A01 T01570064  RH  054%=      5-min Rain = 0
KCA2 141736Z 28007KT 16/07 A3027 RMK A01 T01560069  RH  056%=      5-min Rain = 0
KCA2 141737Z 28007KT 16/07 A3027 RMK A01 T01570070  RH  056%=      5-min Rain = 0
KCA2 141738Z 31009KT 16/07 A3027 RMK A01 T01580073  RH  057%=      5-min Rain = 0
KCA2 141739Z 32010KT 16/07 A3027 RMK A01 T01600071  RH  055%=      5-min Rain = 0
KCA2 141740Z 30008KT 16/07 A3027 RMK A01 T01600069  RH  055%=      5-min Rain = 0
KCA2 141741Z 30006KT 16/07 A3027 RMK A01 T01600068  RH  054%=      5-min Rain = 0
KCA2 141742Z 29005KT 16/06 A3027 RMK A01 T01580064  RH  054%=      5-min Rain = 0
KCA2 141743Z 29006KT 16/07 A3027 RMK A01 T01570066  RH  054%=      5-min Rain = 0
KCA2 141744Z 31009KT 16/07 A3027 RMK A01 T01580067  RH  055%=      5-min Rain = 0
KCA2 141745Z 29006KT 16/06 A3027 RMK A01 T01580064  RH  053%=      5-min Rain = 0
KCA2 141746Z 30005KT 16/07 A3027 RMK A01 T01580066  RH  054%=      5-min Rain = 0
KCA2 141747Z 27005KT 16/07 A3026 RMK A01 T01590066  RH  054%=      5-min Rain = 0
KCA2 141748Z 26005KT 16/06 A3026 RMK A01 T01590063  RH  053%=      5-min Rain = 0
KCA2 141749Z 27004KT 16/06 A3026 RMK A01 T01580063  RH  053%=      5-min Rain = 0
KCA2 141750Z 26006KT 16/06 A3026 RMK A01 T01580064  RH  054%=      5-min Rain = 0
KCA2 141751Z 29007KT 16/07 A3026 RMK A01 T01600067  RH  054%=      5-min Rain = 0
KCA2 141752Z 31006KT 16/07 A3026 RMK A01 T01620065  RH  053%=      5-min Rain = 0
KCA2 141753Z 31006KT 16/06 A3026 RMK A01 T01610064  RH  052%=      5-min Rain = 0
KCA2 141754Z 30004KT 16/07 A3026 RMK A01 T01610065  RH  053%=      5-min Rain = 0
KCA2 141755Z 28007KT 16/07 A3026 RMK A01 T01620069  RH  054%=      5-min Rain = 0
KCA2 141756Z 31007KT 17/07 A3026 RMK A01 T01650065  RH  052%=      5-min Rain = 0
KCA2 141757Z 31005KT 16/07 A3026 RMK A01 T01640066  RH  052%=      5-min Rain = 0
KCA2 141758Z 30004G10KT 17/07 A3026 RMK A01 T01660069  RH  052%=      5-min Rain = 0
KCA2 141759Z 31009KT 17/07 A3026 RMK A01 T01690072  RH  053%=      5-min Rain = 0
KCA2 141800Z 33007KT 17/07 A3026 RMK A01 T01700066  RH  050%=      5-min Rain = 0
KCA2 141801Z 32006KT 17/07 A3026 RMK A01 T01680065  RH  050%=      5-min Rain = 0
KCA2 141802Z 33006KT 17/07 A3026 RMK A01 T01690065  RH  050%=      5-min Rain = 0
KCA2 141803Z 31005KT 17/06 A3026 RMK A01 T01670059  RH  049%=      5-min Rain = 0
KCA2 141804Z 29006KT 17/06 A3026 RMK A01 T01660063  RH  051%=      5-min Rain = 0
KCA2 141805Z 28006KT 17/06 A3026 RMK A01 T01660061  RH  050%=      5-min Rain = 0
KCA2 141806Z 29007KT 17/06 A3026 RMK A01 T01660061  RH  050%=      5-min Rain = 0
KCA2 141807Z 28007KT 17/06 A3026 RMK A01 T01660060  RH  050%=      5-min Rain = 0
KCA2 141808Z 26005KT 17/06 A3026 RMK A01 T01650060  RH  050%=      5-min Rain = 0
KCA2 141809Z 31011G17KT 17/07 A3025 RMK A01 T01660065  RH  051%=      5-min Rain = 0
KCA2 141810Z 35008KT 17/07 A3026 RMK A01 T01690066  RH  051%=      5-min Rain = 0
KCA2 141811Z 32007KT 17/06 A3026 RMK A01 T01690064  RH  050%=      5-min Rain = 0
KCA2 141812Z 31004KT 17/06 A3026 RMK A01 T01690063  RH  050%=      5-min Rain = 0
KCA2 141813Z 30004KT 17/06 A3026 RMK A01 T01680060  RH  049%=      5-min Rain = 0
KCA2 141814Z 28005KT 17/06 A3026 RMK A01 T01670061  RH  049%=      5-min Rain = 0
KCA2 141815Z 27006KT 17/06 A3026 RMK A01 T01670058  RH  049%=      5-min Rain = 0
KCA2 141816Z 26003KT 17/06 A3026 RMK A01 T01660060  RH  050%=      5-min Rain = 0
KCA2 141817Z 31005KT 17/06 A3026 RMK A01 T01660061  RH  050%=      5-min Rain = 0
KCA2 141818Z 32005KT 17/06 A3026 RMK A01 T01680063  RH  050%=      5-min Rain = 0
KCA2 141819Z 28006KT 17/06 A3026 RMK A01 T01690062  RH  049%=      5-min Rain = 0
KCA2 141820Z 28007KT 17/06 A3025 RMK A01 T01690061  RH  049%=      5-min Rain = 0
KCA2 141821Z 27005KT 17/06 A3025 RMK A01 T01680058  RH  048%=      5-min Rain = 0
KCA2 141822Z 28004KT 17/06 A3025 RMK A01 T01670060  RH  049%=      5-min Rain = 0
KCA2 141823Z 29005KT 17/06 A3025 RMK A01 T01680063  RH  050%=      5-min Rain = 0
KCA2 141824Z 31007KT 17/07 A3025 RMK A01 T01720069  RH  051%=      5-min Rain = 0
KCA2 141825Z 30008KT 18/07 A3025 RMK A01 T01760069  RH  049%=      5-min Rain = 0
KCA2 141826Z 30007KT 18/06 A3025 RMK A01 T01760063  RH  048%=      5-min Rain = 0
KCA2 141827Z 29004KT 17/06 A3025 RMK A01 T01730059  RH  047%=      5-min Rain = 0
KCA2 141828Z 30003KT 17/06 A3025 RMK A01 T01710061  RH  048%=      5-min Rain = 0
KCA2 141829Z 31005KT 17/07 A3025 RMK A01 T01730066  RH  049%=      5-min Rain = 0
KCA2 141830Z 32007KT 18/07 A3025 RMK A01 T01760067  RH  049%=      5-min Rain = 0
KCA2 141831Z 30006KT 18/06 A3025 RMK A01 T01770064  RH  047%=      5-min Rain = 0
KCA2 141832Z 29005KT 18/06 A3025 RMK A01 T01750063  RH  047%=      5-min Rain = 0
KCA2 141833Z 27004KT 18/07 A3025 RMK A01 T01750065  RH  048%=      5-min Rain = 0
KCA2 141834Z 28004KT 18/06 A3025 RMK A01 T01760063  RH  048%=      5-min Rain = 0
KCA2 141835Z 29002KT 18/06 A3025 RMK A01 T01760063  RH  047%=      5-min Rain = 0
KCA2 141836Z 28001KT 18/06 A3025 RMK A01 T01760061  RH  047%=      5-min Rain = 0
KCA2 141837Z 29005KT 18/06 A3025 RMK A01 T01770063  RH  047%=      5-min Rain = 0
KCA2 141838Z 28003KT 18/06 A3025 RMK A01 T01770062  RH  047%=      5-min Rain = 0
KCA2 141839Z 32008KT 18/06 A3025 RMK A01 T01770064  RH  048%=      5-min Rain = 0
KCA2 141840Z 32009KT 18/06 A3025 RMK A01 T01780064  RH  047%=      5-min Rain = 0
KCA2 141841Z 31007KT 18/06 A3025 RMK A01 T01780064  RH  047%=      5-min Rain = 0
KCA2 141842Z 31008KT 18/07 A3025 RMK A01 T01780065  RH  048%=      5-min Rain = 0
KCA2 141843Z 30008KT 18/07 A3025 RMK A01 T01790066  RH  047%=      5-min Rain = 0
KCA2 141844Z 29008KT 18/07 A3025 RMK A01 T01800066  RH  047%=      5-min Rain = 0
KCA2 141845Z 28007KT 18/06 A3025 RMK A01 T01800063  RH  046%=      5-min Rain = 0
KCA2 141846Z 29007KT 18/07 A3025 RMK A01 T01800065  RH  047%=      5-min Rain = 0
KCA2 141847Z 30009KT 18/06 A3025 RMK A01 T01790063  RH  046%=      5-min Rain = 0
KCA2 141848Z 29007KT 18/06 A3025 RMK A01 T01780061  RH  046%=      5-min Rain = 0
KCA2 141849Z 27005KT 18/06 A3025 RMK A01 T01770061  RH  046%=      5-min Rain = 0
KCA2 141850Z 33003G8KT 18/06 A3025 RMK A01 T01760059  RH  046%=      5-min Rain = 0
KCA2 141851Z 35007KT 18/06 A3025 RMK A01 T01770063  RH  047%=      5-min Rain = 0
KCA2 141852Z 35008KT 18/06 A3025 RMK A01 T01780063  RH  047%=      5-min Rain = 0
KCA2 141853Z 30008KT 18/06 A3025 RMK A01 T01780063  RH  047%=      5-min Rain = 0
KCA2 141854Z 29007KT 18/07 A3025 RMK A01 T01790066  RH  048%=      5-min Rain = 0
KCA2 141855Z 30006KT 18/07 A3025 RMK A01 T01810066  RH  047%=      5-min Rain = 0
KCA2 141856Z 28006KT 18/07 A3025 RMK A01 T01830067  RH  047%=      5-min Rain = 0
KCA2 141857Z 31007KT 18/07 A3025 RMK A01 T01840066  RH  046%=      5-min Rain = 0
KCA2 141858Z 31008KT 19/06 A3025 RMK A01 T01850064  RH  045%=      5-min Rain = 0
KCA2 141859Z 30008G13KT 18/06 A3025 RMK A01 T01840063  RH  045%=      5-min Rain = 0
KCA2 141900Z 32009KT 18/07 A3024 RMK A01 T01830066  RH  046%=      5-min Rain = 0
KCA2 141901Z 30009KT 19/07 A3024 RMK A01 T01850066  RH  046%=      5-min Rain = 0
KCA2 141902Z 30009KT 19/07 A3024 RMK A01 T01860066  RH  045%=      5-min Rain = 0
KCA2 141903Z 29008KT 19/06 A3024 RMK A01 T01850061  RH  044%=      5-min Rain = 0
KCA2 141904Z 33007KT 18/06 A3024 RMK A01 T01830062  RH  045%=      5-min Rain = 0
KCA2 141905Z 32006KT 18/06 A3024 RMK A01 T01830063  RH  045%=      5-min Rain = 0
KCA2 141906Z 30008KT 19/07 A3024 RMK A01 T01850065  RH  045%=      5-min Rain = 0
KCA2 141907Z 30008KT 19/06 A3024 RMK A01 T01860064  RH  045%=      5-min Rain = 0
KCA2 141908Z 34008KT 19/07 A3024 RMK A01 T01860066  RH  045%=      5-min Rain = 0
KCA2 141909Z 36008KT 19/07 A3024 RMK A01 T01880065  RH  045%=      5-min Rain = 0
KCA2 141910Z 35008KT 19/06 A3024 RMK A01 T01880058  RH  042%=      5-min Rain = 0
KCA2 141911Z 35009KT 19/06 A3024 RMK A01 T01850055  RH  043%=      5-min Rain = 0
KCA2 141912Z 35008KT 18/06 A3024 RMK A01 T01830057  RH  043%=      5-min Rain = 0
KCA2 141913Z 34004KT 18/06 A3024 RMK A01 T01820055  RH  043%=      5-min Rain = 0
KCA2 141914Z 33004KT 18/06 A3024 RMK A01 T01810055  RH  043%=      5-min Rain = 0
KCA2 141915Z 35005KT 18/06 A3024 RMK A01 T01820055  RH  043%=      5-min Rain = 0
KCA2 141916Z 35004KT 18/06 A3024 RMK A01 T01830056  RH  043%=      5-min Rain = 0
KCA2 141917Z 00002KT 18/06 A3024 RMK A01 T01830055  RH  043%=      5-min Rain = 0
KCA2 141918Z 00003KT 18/06 A3024 RMK A01 T01830057  RH  044%=      5-min Rain = 0
KCA2 141919Z 03004KT 18/06 A3024 RMK A01 T01840060  RH  044%=      5-min Rain = 0
KCA2 141920Z 01004KT 19/05 A3024 RMK A01 T01860054  RH  042%=      5-min Rain = 0
KCA2 141921Z 02003KT 18/05 A3024 RMK A01 T01840050  RH  041%=      5-min Rain = 0
KCA2 141922Z 02004KT 18/06 A3024 RMK A01 T01830056  RH  043%=      5-min Rain = 0
KCA2 141923Z 03008KT 18/05 A3024 RMK A01 T01830054  RH  042%=      5-min Rain = 0
KCA2 141924Z 00009KT 18/06 A3024 RMK A01 T01840058  RH  044%=      5-min Rain = 0
KCA2 141925Z 02009KT 19/06 A3024 RMK A01 T01850059  RH  044%=      5-min Rain = 0
KCA2 141926Z 03008KT 18/06 A3024 RMK A01 T01840057  RH  043%=      5-min Rain = 0
KCA2 141927Z 04006KT 18/05 A3024 RMK A01 T01820054  RH  043%=      5-min Rain = 0
KCA2 141928Z 05009KT 18/06 A3024 RMK A01 T01790055  RH  044%=      5-min Rain = 0
KCA2 141929Z 04008KT 18/06 A3024 RMK A01 T01800056  RH  044%=      5-min Rain = 0
KCA2 141930Z 04008KT 18/06 A3024 RMK A01 T01830058  RH  044%=      5-min Rain = 0
KCA2 141931Z 34006KT 19/06 A3024 RMK A01 T01850059  RH  044%=      5-min Rain = 0
KCA2 141932Z 32006KT 19/06 A3024 RMK A01 T01870055  RH  042%=      5-min Rain = 0
KCA2 141933Z 33004KT 19/05 A3024 RMK A01 T01850049  RH  041%=      5-min Rain = 0
KCA2 141934Z 34003KT 18/05 A3024 RMK A01 T01830053  RH  042%=      5-min Rain = 0
KCA2 141935Z 33006KT 19/06 A3024 RMK A01 T01850056  RH  043%=      5-min Rain = 0
KCA2 141936Z 32006KT 19/06 A3024 RMK A01 T01860056  RH  042%=      5-min Rain = 0
KCA2 141937Z 33007KT 19/06 A3023 RMK A01 T01880055  RH  042%=      5-min Rain = 0
KCA2 141938Z 32008KT 19/06 A3023 RMK A01 T01890057  RH  042%=      5-min Rain = 0
KCA2 141939Z 32006KT 19/06 A3023 RMK A01 T01890055  RH  041%=      5-min Rain = 0
KCA2 141940Z 33005KT 19/05 A3023 RMK A01 T01880053  RH  041%=      5-min Rain = 0
KCA2 141941Z 30006KT 19/05 A3023 RMK A01 T01870054  RH  042%=      5-min Rain = 0
KCA2 141942Z 29006KT 19/05 A3023 RMK A01 T01890054  RH  041%=      5-min Rain = 0
KCA2 141943Z 30004KT 19/05 A3023 RMK A01 T01880052  RH  041%=      5-min Rain = 0
KCA2 141944Z 33007KT 19/06 A3023 RMK A01 T01890057  RH  042%=      5-min Rain = 0
KCA2 141945Z 33009KT 19/06 A3023 RMK A01 T01910056  RH  041%=      5-min Rain = 0
KCA2 141946Z 33007KT 19/05 A3023 RMK A01 T01910053  RH  040%=      5-min Rain = 0
KCA2 141947Z 34006KT 19/05 A3023 RMK A01 T01890054  RH  041%=      5-min Rain = 0
KCA2 141948Z 34007KT 19/05 A3023 RMK A01 T01900054  RH  041%=      5-min Rain = 0
KCA2 141949Z 33006KT 19/06 A3023 RMK A01 T01910056  RH  041%=      5-min Rain = 0
KCA2 141950Z 35008KT 19/06 A3023 RMK A01 T01920055  RH  041%=      5-min Rain = 0
KCA2 141951Z 35007KT 19/05 A3023 RMK A01 T01910054  RH  041%=      5-min Rain = 0
KCA2 141952Z 35005KT 19/05 A3023 RMK A01 T01910051  RH  040%=      5-min Rain = 0
KCA2 141953Z 01003KT 19/05 A3023 RMK A01 T01890053  RH  041%=      5-min Rain = 0
KCA2 141954Z 01004KT 19/06 A3023 RMK A01 T01900055  RH  041%=      5-min Rain = 0
KCA2 141955Z 00006KT 19/06 A3023 RMK A01 T01920059  RH  042%=      5-min Rain = 0
KCA2 141956Z 02007KT 19/06 A3023 RMK A01 T01930055  RH  040%=      5-min Rain = 0
KCA2 141957Z 01006KT 19/06 A3023 RMK A01 T01920055  RH  041%=      5-min Rain = 0
KCA2 141958Z 03005KT 19/05 A3023 RMK A01 T01920053  RH  040%=      5-min Rain = 0
KCA2 141959Z 36004KT 19/05 A3023 RMK A01 T01910052  RH  040%=      5-min Rain = 0
KCA2 142000Z 02004KT 19/05 A3023 RMK A01 T01910054  RH  041%=      5-min Rain = 0
KCA2 142001Z 00004KT 19/06 A3023 RMK A01 T01930058  RH  041%=      5-min Rain = 0
KCA2 142002Z 01008KT 20/06 A3023 RMK A01 T01950060  RH  041%=      5-min Rain = 0
KCA2 142003Z 01009KT 20/06 A3023 RMK A01 T01960055  RH  039%=      5-min Rain = 0
KCA2 142004Z 01009KT 19/06 A3023 RMK A01 T01940056  RH  040%=      5-min Rain = 0
KCA2 142005Z 01007KT 19/06 A3023 RMK A01 T01930055  RH  040%=      5-min Rain = 0
KCA2 142006Z 02006KT 19/06 A3022 RMK A01 T01930055  RH  040%=      5-min Rain = 0
KCA2 142007Z 01010KT 19/06 A3022 RMK A01 T01940055  RH  040%=      5-min Rain = 0
KCA2 142008Z 35009KT 19/06 A3022 RMK A01 T01940059  RH  041%=      5-min Rain = 0
KCA2 142009Z 36008KT 20/06 A3022 RMK A01 T01970059  RH  041%=      5-min Rain = 0
KCA2 142010Z 01008KT 20/06 A3022 RMK A01 T01970055  RH  039%=      5-min Rain = 0
KCA2 142011Z 34010KT 20/06 A3022 RMK A01 T01960056  RH  040%=      5-min Rain = 0
KCA2 142012Z 33007KT 20/05 A3022 RMK A01 T01960053  RH  039%=      5-min Rain = 0
KCA2 142013Z 34007KT 20/05 A3022 RMK A01 T01960054  RH  039%=      5-min Rain = 0
KCA2 142014Z 34007KT 20/05 A3022 RMK A01 T01960050  RH  038%=      5-min Rain = 0
KCA2 142015Z 35008KT 20/06 A3022 RMK A01 T01950057  RH  040%=      5-min Rain = 0
KCA2 142016Z 34008KT 20/05 A3022 RMK A01 T01970054  RH  039%=      5-min Rain = 0
KCA2 142017Z 32007KT 20/05 A3022 RMK A01 T01960051  RH  039%=      5-min Rain = 0
KCA2 142018Z 31006KT 20/05 A3022 RMK A01 T01950053  RH  039%=      5-min Rain = 0
KCA2 142019Z 01007KT 20/05 A3022 RMK A01 T01950051  RH  039%=      5-min Rain = 0
KCA2 142020Z 01006KT 20/06 A3022 RMK A01 T01950056  RH  040%=      5-min Rain = 0
KCA2 142021Z 01006KT 20/06 A3022 RMK A01 T01970055  RH  039%=      5-min Rain = 0
KCA2 142022Z 01006KT 20/05 A3022 RMK A01 T01970054  RH  039%=      5-min Rain = 0
KCA2 142023Z 01006G11KT 20/06 A3022 RMK A01 T01970057  RH  040%=      5-min Rain = 0
KCA2 142024Z 35009KT 20/06 A3022 RMK A01 T01980055  RH  039%=      5-min Rain = 0
KCA2 142025Z 02011KT 20/06 A3022 RMK A01 T01980057  RH  040%=      5-min Rain = 0
KCA2 142026Z 01009KT 20/05 A3022 RMK A01 T01970052  RH  038%=      5-min Rain = 0
KCA2 142027Z 02009KT 20/05 A3022 RMK A01 T01950053  RH  039%=      5-min Rain = 0
KCA2 142028Z 05009KT 19/05 A3022 RMK A01 T01940052  RH  039%=      5-min Rain = 0
KCA2 142029Z 02010KT 19/05 A3022 RMK A01 T01930053  RH  040%=      5-min Rain = 0
KCA2 142030Z 01011KT 19/06 A3022 RMK A01 T01940055  RH  040%=      5-min Rain = 0
KCA2 142031Z 01011KT 20/05 A3022 RMK A01 T01960053  RH  039%=      5-min Rain = 0
KCA2 142032Z 01010KT 20/05 A3022 RMK A01 T01950050  RH  038%=      5-min Rain = 0
KCA2 142033Z 00011KT 19/05 A3022 RMK A01 T01930051  RH  039%=      5-min Rain = 0
KCA2 142034Z 01010KT 19/06 A3022 RMK A01 T01940055  RH  040%=      5-min Rain = 0
KCA2 142035Z 01007KT 20/05 A3022 RMK A01 T01950050  RH  039%=      5-min Rain = 0
KCA2 142036Z 00007KT 19/05 A3022 RMK A01 T01940049  RH  038%=      5-min Rain = 0
KCA2 142037Z 01008KT 19/05 A3022 RMK A01 T01930049  RH  039%=      5-min Rain = 0
KCA2 142038Z 35009KT 19/05 A3022 RMK A01 T01930050  RH  039%=      5-min Rain = 0
KCA2 142039Z 36007KT 19/05 A3022 RMK A01 T01930051  RH  039%=      5-min Rain = 0
KCA2 142040Z 02007KT 19/05 A3022 RMK A01 T01940053  RH  040%=      5-min Rain = 0
KCA2 142041Z 01005KT 20/05 A3022 RMK A01 T01950048  RH  038%=      5-min Rain = 0
KCA2 142042Z 01004KT 19/05 A3022 RMK A01 T01940050  RH  039%=      5-min Rain = 0
KCA2 142043Z 02008KT 20/05 A3023 RMK A01 T01950053  RH  039%=      5-min Rain = 0
KCA2 142044Z 03009KT 20/06 A3023 RMK A01 T01980057  RH  040%=      5-min Rain = 0
KCA2 142045Z 03006KT 20/05 A3023 RMK A01 T01980048  RH  037%=      5-min Rain = 0
KCA2 142046Z 36005KT 20/05 A3022 RMK A01 T01950045  RH  037%=      5-min Rain = 0
KCA2 142047Z 34005KT 19/05 A3022 RMK A01 T01930047  RH  038%=      5-min Rain = 0
KCA2 142048Z 04006KT 19/05 A3022 RMK A01 T01930048  RH  038%=      5-min Rain = 0
KCA2 142049Z 04008KT 20/05 A3022 RMK A01 T01950052  RH  039%=      5-min Rain = 0
KCA2 142050Z 35011KT 20/05 A3022 RMK A01 T01960049  RH  038%=      5-min Rain = 0
KCA2 142051Z 01011KT 20/05 A3022 RMK A01 T01970049  RH  038%=      5-min Rain = 0
KCA2 142052Z 02010KT 20/05 A3022 RMK A01 T01970050  RH  038%=      5-min Rain = 0
KCA2 142053Z 03011KT 20/05 A3022 RMK A01 T01980048  RH  037%=      5-min Rain = 0
KCA2 142054Z 02011KT 20/05 A3023 RMK A01 T01970050  RH  038%=      5-min Rain = 0
KCA2 142055Z 02009KT 20/05 A3023 RMK A01 T01970047  RH  037%=      5-min Rain = 0
KCA2 142056Z 01012KT 20/05 A3023 RMK A01 T01970048  RH  037%=      5-min Rain = 0
KCA2 142057Z 03009KT 20/05 A3023 RMK A01 T01970045  RH  037%=      5-min Rain = 0
KCA2 142058Z 04009KT 20/05 A3023 RMK A01 T01960046  RH  037%=      5-min Rain = 0
KCA2 142059Z 05008KT 20/05 A3023 RMK A01 T01960048  RH  038%=      5-min Rain = 0
KCA2 142100Z 04008KT 20/05 A3022 RMK A01 T01960047  RH  038%=      5-min Rain = 0
KCA2 142101Z 04011KT 20/05 A3022 RMK A01 T01970046  RH  037%=      5-min Rain = 0
KCA2 142102Z 02008KT 20/05 A3023 RMK A01 T01960047  RH  037%=      5-min Rain = 0
KCA2 142103Z 35009KT 20/05 A3023 RMK A01 T01970046  RH  037%=      5-min Rain = 0
KCA2 142104Z 35009KT 20/04 A3023 RMK A01 T01970043  RH  036%=      5-min Rain = 0
KCA2 142105Z 34010KT 20/05 A3023 RMK A01 T01960045  RH  037%=      5-min Rain = 0
KCA2 142106Z 33009KT 20/04 A3023 RMK A01 T01960042  RH  036%=      5-min Rain = 0
KCA2 142107Z 35007KT 20/05 A3023 RMK A01 T01960045  RH  037%=      5-min Rain = 0
KCA2 142108Z 00006KT 20/04 A3023 RMK A01 T01980044  RH  036%=      5-min Rain = 0
KCA2 142109Z 01006KT 20/04 A3023 RMK A01 T01980041  RH  036%=      5-min Rain = 0
KCA2 142110Z 01004KT 20/04 A3023 RMK A01 T01960039  RH  035%=      5-min Rain = 0
KCA2 142111Z 01003KT 20/04 A3023 RMK A01 T01960040  RH  036%=      5-min Rain = 0
KCA2 142112Z 33003KT 20/04 A3023 RMK A01 T01960040  RH  036%=      5-min Rain = 0
KCA2 142113Z 32004KT 20/04 A3023 RMK A01 T01970044  RH  037%=      5-min Rain = 0
KCA2 142114Z 31004KT 20/04 A3023 RMK A01 T01990043  RH  036%=      5-min Rain = 0
KCA2 142115Z 33004KT 20/05 A3023 RMK A01 T02010045  RH  036%=      5-min Rain = 0
KCA2 142116Z 01005KT 20/05 A3023 RMK A01 T02030050  RH  037%=      5-min Rain = 0
KCA2 142117Z 01004KT 20/04 A3023 RMK A01 T02040043  RH  035%=      5-min Rain = 0
KCA2 142118Z 01006KT 20/04 A3023 RMK A01 T02020042  RH  035%=      5-min Rain = 0
KCA2 142119Z 01004KT 20/04 A3023 RMK A01 T02000037  RH  034%=      5-min Rain = 0
KCA2 142120Z 02006KT 20/04 A3023 RMK A01 T01970038  RH  035%=      5-min Rain = 0
KCA2 142121Z 03007KT 20/04 A3023 RMK A01 T01970038  RH  035%=      5-min Rain = 0
KCA2 142122Z 02007KT 20/04 A3023 RMK A01 T01970043  RH  036%=      5-min Rain = 0
KCA2 142123Z 02006KT 20/04 A3023 RMK A01 T01980042  RH  036%=      5-min Rain = 0
KCA2 142124Z 04006KT 20/04 A3023 RMK A01 T01990041  RH  035%=      5-min Rain = 0
KCA2 142125Z 04006KT 20/04 A3023 RMK A01 T01990038  RH  034%=      5-min Rain = 0
KCA2 142126Z 02008KT 20/04 A3023 RMK A01 T01980040  RH  035%=      5-min Rain = 0
KCA2 142127Z 01010KT 20/04 A3023 RMK A01 T01990041  RH  035%=      5-min Rain = 0
KCA2 142128Z 01008KT 20/04 A3023 RMK A01 T01980037  RH  034%=      5-min Rain = 0
KCA2 142129Z 03007KT 20/04 A3023 RMK A01 T01970036  RH  035%=      5-min Rain = 0
KCA2 142130Z 02009KT 20/04 A3023 RMK A01 T01960039  RH  035%=      5-min Rain = 0
KCA2 142131Z 01011KT 20/04 A3023 RMK A01 T01970038  RH  035%=      5-min Rain = 0
KCA2 142132Z 00008KT 20/04 A3023 RMK A01 T01980035  RH  034%=      5-min Rain = 0
KCA2 142133Z 35008KT 20/04 A3023 RMK A01 T01980035  RH  034%=      5-min Rain = 0
KCA2 142134Z 00008KT 20/03 A3023 RMK A01 T01970032  RH  034%=      5-min Rain = 0
KCA2 142135Z 36009KT 20/03 A3023 RMK A01 T01970033  RH  034%=      5-min Rain = 0
KCA2 142136Z 36009KT 20/04 A3023 RMK A01 T01960035  RH  034%=      5-min Rain = 0
KCA2 142137Z 35008KT 20/03 A3023 RMK A01 T01960033  RH  034%=      5-min Rain = 0
KCA2 142138Z 01007KT 20/03 A3023 RMK A01 T01960033  RH  034%=      5-min Rain = 0
KCA2 142139Z 02007KT 20/03 A3023 RMK A01 T01960033  RH  034%=      5-min Rain = 0
KCA2 142140Z 03005KT 20/03 A3023 RMK A01 T01960032  RH  034%=      5-min Rain = 0
KCA2 142141Z 04006KT 20/03 A3023 RMK A01 T01960033  RH  034%=      5-min Rain = 0
KCA2 142142Z 05006KT 20/04 A3023 RMK A01 T01970035  RH  034%=      5-min Rain = 0
KCA2 142143Z 03005KT 20/04 A3023 RMK A01 T01960035  RH  034%=      5-min Rain = 0
KCA2 142144Z 02005KT 20/04 A3023 RMK A01 T01960036  RH  035%=      5-min Rain = 0
KCA2 142145Z 04005KT 20/04 A3023 RMK A01 T01970037  RH  035%=      5-min Rain = 0
KCA2 142146Z 05004KT 20/04 A3023 RMK A01 T01970037  RH  035%=      5-min Rain = 0
KCA2 142147Z 04004KT 20/04 A3023 RMK A01 T01980037  RH  034%=      5-min Rain = 0
KCA2 142148Z 03005KT 20/04 A3023 RMK A01 T01980038  RH  035%=      5-min Rain = 0
KCA2 142149Z 03006G11KT 20/04 A3023 RMK A01 T01990039  RH  035%=      5-min Rain = 0
KCA2 142150Z 03008KT 20/03 A3023 RMK A01 T01990034  RH  033%=      5-min Rain = 0
KCA2 142151Z 01008KT 20/03 A3023 RMK A01 T01980032  RH  033%=      5-min Rain = 0
KCA2 142152Z 01010KT 20/03 A3023 RMK A01 T01960034  RH  034%=      5-min Rain = 0
KCA2 142153Z 03010KT 20/04 A3023 RMK A01 T01970036  RH  035%=      5-min Rain = 0
KCA2 142154Z 02009KT 20/04 A3023 RMK A01 T01980035  RH  034%=      5-min Rain = 0
KCA2 142155Z 00010KT 20/04 A3023 RMK A01 T01980035  RH  034%=      5-min Rain = 0
KCA2 142156Z 36006KT 20/03 A3022 RMK A01 T01970029  RH  033%=      5-min Rain = 0
KCA2 142157Z 00008KT 20/03 A3022 RMK A01 T01960031  RH  033%=      5-min Rain = 0
KCA2 142158Z 02012KT 20/03 A3022 RMK A01 T01960031  RH  034%=      5-min Rain = 0
KCA2 142159Z 01014KT 20/03 A3022 RMK A01 T01960031  RH  033%=      5-min Rain = 0
KCA2 142200Z 34010KT 20/03 A3022 RMK A01 T01970031  RH  033%=      5-min Rain = 0
KCA2 142201Z 00011KT 20/03 A3022 RMK A01 T01970029  RH  033%=      5-min Rain = 0
KCA2 142202Z 01012KT 20/03 A3022 RMK A01 T01970029  RH  033%=      5-min Rain = 0
KCA2 142203Z 02008KT 20/03 A3022 RMK A01 T01960029  RH  033%=      5-min Rain = 0
KCA2 142204Z 03009KT 20/03 A3022 RMK A01 T01960027  RH  033%=      5-min Rain = 0
KCA2 142205Z 03009KT 20/03 A3022 RMK A01 T01950026  RH  032%=      5-min Rain = 0
KCA2 142206Z 03010KT 20/03 A3022 RMK A01 T01950030  RH  033%=      5-min Rain = 0
KCA2 142207Z 03008KT 20/03 A3022 RMK A01 T01960031  RH  033%=      5-min Rain = 0
KCA2 142208Z 03009KT 20/03 A3022 RMK A01 T01970029  RH  033%=      5-min Rain = 0
KCA2 142209Z 03007KT 20/03 A3022 RMK A01 T01970030  RH  033%=      5-min Rain = 0
KCA2 142210Z 02009KT 20/03 A3022 RMK A01 T01970030  RH  033%=      5-min Rain = 0
KCA2 142211Z 02010KT 20/03 A3022 RMK A01 T01970031  RH  033%=      5-min Rain = 0
KCA2 142212Z 01011KT 20/03 A3022 RMK A01 T01970030  RH  033%=      5-min Rain = 0
KCA2 142213Z 03010KT 20/03 A3022 RMK A01 T01970029  RH  033%=      5-min Rain = 0
KCA2 142214Z 02007KT 20/03 A3022 RMK A01 T01960029  RH  033%=      5-min Rain = 0
KCA2 142215Z 01006KT 20/03 A3022 RMK A01 T01960031  RH  034%=      5-min Rain = 0
KCA2 142216Z 36008KT 20/03 A3022 RMK A01 T01960034  RH  034%=      5-min Rain = 0
KCA2 142217Z 35011KT 20/03 A3022 RMK A01 T01960032  RH  034%=      5-min Rain = 0
KCA2 142218Z 01013KT 20/03 A3022 RMK A01 T01960032  RH  034%=      5-min Rain = 0
KCA2 142219Z 01012KT 20/03 A3022 RMK A01 T01960031  RH  034%=      5-min Rain = 0
KCA2 142220Z 02011KT 20/03 A3022 RMK A01 T01950031  RH  034%=      5-min Rain = 0
KCA2 142221Z 02011KT 20/03 A3022 RMK A01 T01950031  RH  034%=      5-min Rain = 0
KCA2 142222Z 02011KT 20/03 A3023 RMK A01 T01950031  RH  034%=      5-min Rain = 0
KCA2 142223Z 02008KT 20/03 A3023 RMK A01 T01950028  RH  033%=      5-min Rain = 0
KCA2 142224Z 02008KT 19/03 A3023 RMK A01 T01940030  RH  034%=      5-min Rain = 0
KCA2 142225Z 02007KT 19/03 A3023 RMK A01 T01940030  RH  034%=      5-min Rain = 0
KCA2 142226Z 02007KT 19/03 A3023 RMK A01 T01940032  RH  034%=      5-min Rain = 0
KCA2 142227Z 00008KT 20/03 A3023 RMK A01 T01950034  RH  034%=      5-min Rain = 0
KCA2 142228Z 02008KT 20/03 A3023 RMK A01 T01960030  RH  033%=      5-min Rain = 0
KCA2 142229Z 01010KT 20/03 A3023 RMK A01 T01950030  RH  033%=      5-min Rain = 0
KCA2 142230Z 00012KT 20/03 A3023 RMK A01 T01950030  RH  034%=      5-min Rain = 0
KCA2 142231Z 36010KT 19/03 A3023 RMK A01 T01940030  RH  034%=      5-min Rain = 0
KCA2 142232Z 00009KT 19/03 A3023 RMK A01 T01930027  RH  033%=      5-min Rain = 0
KCA2 142233Z 36009KT 19/03 A3023 RMK A01 T01930033  RH  035%=      5-min Rain = 0
KCA2 142234Z 01009KT 19/03 A3023 RMK A01 T01930031  RH  034%=      5-min Rain = 0
KCA2 142235Z 00010KT 19/03 A3023 RMK A01 T01930027  RH  033%=      5-min Rain = 0
KCA2 142236Z 01008KT 19/03 A3023 RMK A01 T01920028  RH  033%=      5-min Rain = 0
KCA2 142237Z 36007KT 19/03 A3023 RMK A01 T01920030  RH  034%=      5-min Rain = 0
KCA2 142238Z 02009KT 19/03 A3023 RMK A01 T01930033  RH  035%=      5-min Rain = 0
KCA2 142239Z 03010KT 19/03 A3023 RMK A01 T01930032  RH  034%=      5-min Rain = 0
KCA2 142240Z 00009KT 19/03 A3023 RMK A01 T01930030  RH  034%=      5-min Rain = 0
KCA2 142241Z 35010KT 19/03 A3023 RMK A01 T01930031  RH  034%=      5-min Rain = 0
KCA2 142242Z 35011KT 19/03 A3023 RMK A01 T01920030  RH  034%=      5-min Rain = 0
KCA2 142243Z 35011KT 19/03 A3023 RMK A01 T01930029  RH  034%=      5-min Rain = 0
KCA2 142244Z 00012KT 19/03 A3023 RMK A01 T01920029  RH  034%=      5-min Rain = 0
KCA2 142245Z 01011KT 19/03 A3024 RMK A01 T01910030  RH  034%=      5-min Rain = 0
KCA2 142246Z 01010KT 19/03 A3024 RMK A01 T01910029  RH  034%=      5-min Rain = 0
KCA2 142247Z 00008KT 19/03 A3024 RMK A01 T01910028  RH  034%=      5-min Rain = 0
KCA2 142248Z 00009KT 19/03 A3024 RMK A01 T01900030  RH  034%=      5-min Rain = 0
KCA2 142249Z 00009KT 19/03 A3024 RMK A01 T01910031  RH  035%=      5-min Rain = 0
KCA2 142250Z 01009KT 19/03 A3024 RMK A01 T01910034  RH  035%=      5-min Rain = 0
KCA2 142251Z 02010KT 19/03 A3024 RMK A01 T01920033  RH  035%=      5-min Rain = 0
KCA2 142252Z 02009KT 19/03 A3024 RMK A01 T01920032  RH  035%=      5-min Rain = 0
KCA2 142253Z 35008KT 19/04 A3024 RMK A01 T01920035  RH  035%=      5-min Rain = 0
KCA2 142254Z 01010KT 19/03 A3024 RMK A01 T01920033  RH  035%=      5-min Rain = 0
KCA2 142255Z 00009KT 19/03 A3024 RMK A01 T01910032  RH  035%=      5-min Rain = 0
KCA2 142256Z 00010KT 19/03 A3024 RMK A01 T01900033  RH  035%=      5-min Rain = 0
KCA2 142257Z 01011KT 19/03 A3024 RMK A01 T01890031  RH  035%=      5-min Rain = 0
KCA2 142258Z 00010KT 19/03 A3024 RMK A01 T01890030  RH  035%=      5-min Rain = 0
KCA2 142259Z 35010KT 19/03 A3024 RMK A01 T01880031  RH  035%=      5-min Rain = 0
KCA2 142300Z 35012KT 19/03 A3024 RMK A01 T01880030  RH  035%=      5-min Rain = 0
KCA2 142301Z 00010KT 19/03 A3024 RMK A01 T01890032  RH  035%=      5-min Rain = 0
KCA2 142302Z 35013KT 19/03 A3024 RMK A01 T01890031  RH  035%=      5-min Rain = 0
KCA2 142303Z 00011KT 19/03 A3024 RMK A01 T01880030  RH  035%=      5-min Rain = 0
KCA2 142304Z 01013KT 19/03 A3024 RMK A01 T01870030  RH  035%=      5-min Rain = 0
KCA2 142305Z 36012KT 19/03 A3024 RMK A01 T01860031  RH  036%=      5-min Rain = 0
KCA2 142306Z 36013KT 19/03 A3024 RMK A01 T01860030  RH  035%=      5-min Rain = 0
KCA2 142307Z 00013KT 19/03 A3024 RMK A01 T01860030  RH  035%=      5-min Rain = 0
KCA2 142308Z 36012KT 19/03 A3024 RMK A01 T01850030  RH  036%=      5-min Rain = 0
KCA2 142309Z 36012KT 19/03 A3024 RMK A01 T01860030  RH  036%=      5-min Rain = 0
KCA2 142310Z 35012KT 19/03 A3024 RMK A01 T01860032  RH  036%=      5-min Rain = 0
KCA2 142311Z 00011KT 19/03 A3025 RMK A01 T01860031  RH  036%=      5-min Rain = 0
KCA2 142312Z 36011KT 19/03 A3025 RMK A01 T01850032  RH  036%=      5-min Rain = 0
KCA2 142313Z 35013KT 19/03 A3025 RMK A01 T01850028  RH  035%=      5-min Rain = 0
KCA2 142314Z 35013KT 19/03 A3025 RMK A01 T01850026  RH  035%=      5-min Rain = 0
KCA2 142315Z 35012KT 18/03 A3025 RMK A01 T01840026  RH  035%=      5-min Rain = 0
KCA2 142316Z 35010KT 18/03 A3025 RMK A01 T01840026  RH  035%=      5-min Rain = 0
KCA2 142317Z 35012G18KT 18/03 A3025 RMK A01 T01840026  RH  035%=      5-min Rain = 0
KCA2 142318Z 35014KT 18/03 A3025 RMK A01 T01840028  RH  035%=      5-min Rain = 0
KCA2 142319Z 01013KT 18/03 A3025 RMK A01 T01840030  RH  036%=      5-min Rain = 0
KCA2 142320Z 01012KT 18/03 A3025 RMK A01 T01840030  RH  036%=      5-min Rain = 0
KCA2 142321Z 00012KT 18/03 A3025 RMK A01 T01830029  RH  036%=      5-min Rain = 0
KCA2 142322Z 01010KT 18/03 A3025 RMK A01 T01830027  RH  035%=      5-min Rain = 0
KCA2 142323Z 36008KT 18/03 A3025 RMK A01 T01820027  RH  035%=      5-min Rain = 0
KCA2 142324Z 35008KT 18/03 A3025 RMK A01 T01820029  RH  036%=      5-min Rain = 0
KCA2 142325Z 36010KT 18/03 A3025 RMK A01 T01830027  RH  035%=      5-min Rain = 0
KCA2 142326Z 36009KT 18/03 A3025 RMK A01 T01830028  RH  035%=      5-min Rain = 0
KCA2 142327Z 36009KT 18/03 A3025 RMK A01 T01830030  RH  036%=      5-min Rain = 0
KCA2 142328Z 36011KT 18/03 A3025 RMK A01 T01820027  RH  035%=      5-min Rain = 0
KCA2 142329Z 35010KT 18/03 A3025 RMK A01 T01810026  RH  036%=      5-min Rain = 0
KCA2 142330Z 35012KT 18/03 A3025 RMK A01 T01800027  RH  036%=      5-min Rain = 0
KCA2 142331Z 35010KT 18/03 A3025 RMK A01 T01800029  RH  036%=      5-min Rain = 0
KCA2 142332Z 00007KT 18/03 A3025 RMK A01 T01800033  RH  038%=      5-min Rain = 0
KCA2 142333Z 00008KT 18/04 A3026 RMK A01 T01790035  RH  038%=      5-min Rain = 0
KCA2 142334Z 01011KT 18/03 A3026 RMK A01 T01790034  RH  038%=      5-min Rain = 0
KCA2 142335Z 02011KT 18/04 A3026 RMK A01 T01780037  RH  039%=      5-min Rain = 0
KCA2 142336Z 01011KT 18/04 A3026 RMK A01 T01770039  RH  040%=      5-min Rain = 0
KCA2 142337Z 01010KT 18/04 A3026 RMK A01 T01760040  RH  040%=      5-min Rain = 0
KCA2 142338Z 02009KT 18/04 A3026 RMK A01 T01760041  RH  041%=      5-min Rain = 0
KCA2 142339Z 02009KT 18/04 A3026 RMK A01 T01750042  RH  041%=      5-min Rain = 0
KCA2 142340Z 02010KT 18/04 A3026 RMK A01 T01750041  RH  041%=      5-min Rain = 0
KCA2 142341Z 01009KT 18/04 A3026 RMK A01 T01750041  RH  041%=      5-min Rain = 0
KCA2 142342Z 35009KT 18/04 A3026 RMK A01 T01750039  RH  041%=      5-min Rain = 0
KCA2 142343Z 36010KT 18/04 A3026 RMK A01 T01750039  RH  040%=      5-min Rain = 0
KCA2 142344Z 00010KT 18/04 A3026 RMK A01 T01750040  RH  041%=      5-min Rain = 0
KCA2 142345Z 01010KT 17/04 A3026 RMK A01 T01740039  RH  041%=      5-min Rain = 0
KCA2 142346Z 01011KT 17/04 A3026 RMK A01 T01740040  RH  041%=      5-min Rain = 0
KCA2 142347Z 02010KT 17/04 A3026 RMK A01 T01740040  RH  041%=      5-min Rain = 0
KCA2 142348Z 02009KT 17/04 A3026 RMK A01 T01730040  RH  041%=      5-min Rain = 0
KCA2 142349Z 02008KT 17/04 A3026 RMK A01 T01720042  RH  042%=      5-min Rain = 0
KCA2 142350Z 01009KT 17/04 A3027 RMK A01 T01720042  RH  042%=      5-min Rain = 0
KCA2 142351Z 01007KT 17/04 A3027 RMK A01 T01710042  RH  042%=      5-min Rain = 0
KCA2 142352Z 01009KT 17/04 A3027 RMK A01 T01710041  RH  042%=      5-min Rain = 0
KCA2 142353Z 02011KT 17/04 A3027 RMK A01 T01710041  RH  042%=      5-min Rain = 0
KCA2 142354Z 02012KT 17/04 A3027 RMK A01 T01710039  RH  042%=      5-min Rain = 0
KCA2 142355Z 01013KT 17/04 A3027 RMK A01 T01710038  RH  041%=      5-min Rain = 0
KCA2 142356Z 01010KT 17/04 A3027 RMK A01 T01710039  RH  041%=      5-min Rain = 0
KCA2 142357Z 00010KT 17/04 A3027 RMK A01 T01700039  RH  042%=      5-min Rain = 0
KCA2 142358Z 02011KT 17/04 A3027 RMK A01 T01700039  RH  042%=      5-min Rain = 0
KCA2 142359Z 02010KT 17/04 A3027 RMK A01 T01700039  RH  042%=      5-min Rain = 0
KCA2 150000Z 01010KT 17/04 A3027 RMK A01 T01690040  RH  042%=      5-min Rain = 0
KCA2 150001Z 01011KT 17/04 A3027 RMK A01 T01690038  RH  042%=      5-min Rain = 0
KCA2 150002Z 01010KT 17/04 A3027 RMK A01 T01690039  RH  042%=      5-min Rain = 0
KCA2 150003Z 01009KT 17/04 A3027 RMK A01 T01690039  RH  042%=      5-min Rain = 0
KCA2 150004Z 01012KT 17/04 A3027 RMK A01 T01680038  RH  042%=      5-min Rain = 0
KCA2 150005Z 01010KT 17/04 A3027 RMK A01 T01680038  RH  042%=      5-min Rain = 0
KCA2 150006Z 02011KT 17/04 A3027 RMK A01 T01680039  RH  042%=      5-min Rain = 0
KCA2 150007Z 02011KT 17/04 A3027 RMK A01 T01670038  RH  042%=      5-min Rain = 0
KCA2 150008Z 01010KT 17/04 A3027 RMK A01 T01670038  RH  042%=      5-min Rain = 0
KCA2 150009Z 36008KT 17/04 A3027 RMK A01 T01670039  RH  042%=      5-min Rain = 0
KCA2 150010Z 02006KT 17/04 A3028 RMK A01 T01660040  RH  043%=      5-min Rain = 0
KCA2 150011Z 01007KT 17/04 A3028 RMK A01 T01660041  RH  043%=      5-min Rain = 0
KCA2 150012Z 01007KT 17/04 A3028 RMK A01 T01650041  RH  044%=      5-min Rain = 0
KCA2 150013Z 01007KT 17/04 A3028 RMK A01 T01650039  RH  043%=      5-min Rain = 0
KCA2 150014Z 00008KT 17/04 A3028 RMK A01 T01650039  RH  043%=      5-min Rain = 0
KCA2 150015Z 00008KT 16/04 A3028 RMK A01 T01640039  RH  043%=      5-min Rain = 0
KCA2 150016Z 01009KT 16/04 A3028 RMK A01 T01640037  RH  043%=      5-min Rain = 0
KCA2 150017Z 01010KT 16/04 A3028 RMK A01 T01640036  RH  042%=      5-min Rain = 0
KCA2 150018Z 01009KT 16/04 A3028 RMK A01 T01640036  RH  043%=      5-min Rain = 0
KCA2 150019Z 01010KT 16/04 A3028 RMK A01 T01640036  RH  042%=      5-min Rain = 0
KCA2 150020Z 02009KT 16/04 A3028 RMK A01 T01640036  RH  042%=      5-min Rain = 0
KCA2 150021Z 01009KT 16/04 A3028 RMK A01 T01640037  RH  043%=      5-min Rain = 0
KCA2 150022Z 01010KT 16/04 A3028 RMK A01 T01630036  RH  043%=      5-min Rain = 0
KCA2 150023Z 02011KT 16/04 A3028 RMK A01 T01630037  RH  043%=      5-min Rain = 0
KCA2 150024Z 01010KT 16/04 A3028 RMK A01 T01630037  RH  043%=      5-min Rain = 0
KCA2 150025Z 00010KT 16/04 A3028 RMK A01 T01620036  RH  043%=      5-min Rain = 0
KCA2 150026Z 00008KT 16/04 A3028 RMK A01 T01620036  RH  043%=      5-min Rain = 0
KCA2 150027Z 01010KT 16/04 A3028 RMK A01 T01610037  RH  043%=      5-min Rain = 0
KCA2 150028Z 01010KT 16/04 A3028 RMK A01 T01620035  RH  043%=      5-min Rain = 0
KCA2 150029Z 01011KT 16/03 A3028 RMK A01 T01610034  RH  043%=      5-min Rain = 0
KCA2 150030Z 01013KT 16/03 A3028 RMK A01 T01620033  RH  042%=      5-min Rain = 0
KCA2 150031Z 00011KT 16/03 A3028 RMK A01 T01610031  RH  042%=      5-min Rain = 0
KCA2 150032Z 01013KT 16/03 A3028 RMK A01 T01610030  RH  041%=      5-min Rain = 0
KCA2 150033Z 02012KT 16/03 A3028 RMK A01 T01610030  RH  041%=      5-min Rain = 0
KCA2 150034Z 01013KT 16/03 A3028 RMK A01 T01610030  RH  041%=      5-min Rain = 0
KCA2 150035Z 36011KT 16/03 A3028 RMK A01 T01610030  RH  042%=      5-min Rain = 0
KCA2 150036Z 00009KT 16/03 A3029 RMK A01 T01600031  RH  042%=      5-min Rain = 0
KCA2 150037Z 01012G17KT 16/03 A3029 RMK A01 T01600030  RH  042%=      5-min Rain = 0
KCA2 150038Z 00010KT 16/03 A3029 RMK A01 T01600029  RH  041%=      5-min Rain = 0
KCA2 150039Z 00010KT 16/03 A3029 RMK A01 T01590030  RH  042%=      5-min Rain = 0
KCA2 150040Z 35011KT 16/03 A3029 RMK A01 T01590030  RH  042%=      5-min Rain = 0
KCA2 150041Z 01011KT 16/03 A3029 RMK A01 T01590028  RH  041%=      5-min Rain = 0
KCA2 150042Z 01010KT 16/03 A3029 RMK A01 T01590029  RH  042%=      5-min Rain = 0
KCA2 150043Z 01012KT 16/03 A3029 RMK A01 T01590028  RH  041%=      5-min Rain = 0
KCA2 150044Z 00010KT 16/03 A3029 RMK A01 T01580028  RH  041%=      5-min Rain = 0
KCA2 150045Z 01011KT 16/03 A3029 RMK A01 T01580028  RH  042%=      5-min Rain = 0
KCA2 150046Z 01010KT 16/03 A3029 RMK A01 T01570025  RH  041%=      5-min Rain = 0
KCA2 150047Z 36011KT 16/02 A3029 RMK A01 T01570024  RH  041%=      5-min Rain = 0
KCA2 150048Z 00010KT 16/03 A3029 RMK A01 T01570025  RH  041%=      5-min Rain = 0
KCA2 150049Z 01011KT 16/02 A3029 RMK A01 T01570023  RH  040%=      5-min Rain = 0
KCA2 150050Z 01013KT 16/02 A303 RMK A01 T01570023  RH  041%=      5-min Rain = 0
KCA2 150051Z 01012KT 16/02 A303 RMK A01 T01570023  RH  040%=      5-min Rain = 0
KCA2 150052Z 01010G16KT 16/02 A303 RMK A01 T01560024  RH  041%=      5-min Rain = 0
KCA2 150053Z 01014KT 16/02 A303 RMK A01 T01550022  RH  040%=      5-min Rain = 0
KCA2 150054Z 36013KT 16/02 A303 RMK A01 T01560021  RH  040%=      5-min Rain = 0
KCA2 150055Z 00014KT 16/02 A303 RMK A01 T01560022  RH  040%=      5-min Rain = 0
KCA2 150056Z 36013KT 16/02 A303 RMK A01 T01550021  RH  040%=      5-min Rain = 0
KCA2 150057Z 36013KT 16/02 A303 RMK A01 T01550020  RH  040%=      5-min Rain = 0
KCA2 150058Z 00013KT 16/02 A303 RMK A01 T01550020  RH  040%=      5-min Rain = 0
KCA2 150059Z 36013KT 16/02 A303 RMK A01 T01550018  RH  040%=      5-min Rain = 0
KCA2 150100Z 36013KT 16/02 A303 RMK A01 T01550018  RH  040%=      5-min Rain = 0
KCA2 150101Z 00014KT 16/02 A303 RMK A01 T01550018  RH  040%=      5-min Rain = 0
KCA2 150102Z 36012KT 15/02 A303 RMK A01 T01540016  RH  039%=      5-min Rain = 0
KCA2 150103Z 00010KT 15/02 A3031 RMK A01 T01540017  RH  040%=      5-min Rain = 0
KCA2 150104Z 36011KT 15/02 A3031 RMK A01 T01530017  RH  040%=      5-min Rain = 0
KCA2 150105Z 01012KT 15/02 A3031 RMK A01 T01520017  RH  040%=      5-min Rain = 0
KCA2 150106Z 00009KT 15/02 A3031 RMK A01 T01520017  RH  040%=      5-min Rain = 0
KCA2 150107Z 00011KT 15/02 A3031 RMK A01 T01520017  RH  040%=      5-min Rain = 0
KCA2 150108Z 36010KT 15/02 A3031 RMK A01 T01510016  RH  040%=      5-min Rain = 0
KCA2 150109Z 00010KT 15/02 A3031 RMK A01 T01510016  RH  040%=      5-min Rain = 0
KCA2 150110Z 00009KT 15/02 A3031 RMK A01 T01510016  RH  040%=      5-min Rain = 0
KCA2 150111Z 36010KT 15/02 A3031 RMK A01 T01500016  RH  040%=      5-min Rain = 0
KCA2 150112Z 36010KT 15/02 A3031 RMK A01 T01500016  RH  040%=      5-min Rain = 0
KCA2 150113Z 00009KT 15/02 A3031 RMK A01 T01500017  RH  041%=      5-min Rain = 0
KCA2 150114Z 00008KT 15/02 A3031 RMK A01 T01490017  RH  041%=      5-min Rain = 0
KCA2 150115Z 01011KT 15/02 A3031 RMK A01 T01490015  RH  040%=      5-min Rain = 0
KCA2 150116Z 01012KT 15/01 A3031 RMK A01 T01490014  RH  040%=      5-min Rain = 0
KCA2 150117Z 01011KT 15/01 A3031 RMK A01 T01490014  RH  040%=      5-min Rain = 0
KCA2 150118Z 01011KT 15/01 A3031 RMK A01 T01490013  RH  040%=      5-min Rain = 0
KCA2 150119Z 01011KT 15/01 A3031 RMK A01 T01490012  RH  040%=      5-min Rain = 0
KCA2 150120Z 01012G17KT 15/01 A3031 RMK A01 T01490013  RH  040%=      5-min Rain = 0
KCA2 150121Z 01010KT 15/01 A3031 RMK A01 T01490012  RH  039%=      5-min Rain = 0
KCA2 150122Z 00011KT 15/01 A3032 RMK A01 T01490013  RH  040%=      5-min Rain = 0
KCA2 150123Z 01011KT 15/01 A3032 RMK A01 T01490013  RH  040%=      5-min Rain = 0
KCA2 150124Z 02011KT 15/01 A3032 RMK A01 T01490013  RH  040%=      5-min Rain = 0
KCA2 150125Z 01009KT 15/01 A3032 RMK A01 T01490014  RH  040%=      5-min Rain = 0
KCA2 150126Z 00010KT 15/01 A3032 RMK A01 T01480013  RH  040%=      5-min Rain = 0
KCA2 150127Z 00009KT 15/01 A3032 RMK A01 T01480013  RH  040%=      5-min Rain = 0
KCA2 150128Z 36009KT 15/01 A3032 RMK A01 T01480014  RH  040%=      5-min Rain = 0
KCA2 150129Z 00010KT 15/01 A3032 RMK A01 T01480013  RH  040%=      5-min Rain = 0
KCA2 150130Z 00010KT 15/01 A3032 RMK A01 T01480012  RH  040%=      5-min Rain = 0
KCA2 150131Z 00009KT 15/01 A3032 RMK A01 T01480012  RH  040%=      5-min Rain = 0
KCA2 150132Z 00008KT 15/01 A3032 RMK A01 T01480013  RH  040%=      5-min Rain = 0
KCA2 150133Z 01007KT 15/01 A3032 RMK A01 T01480013  RH  040%=      5-min Rain = 0
KCA2 150134Z 01008KT 15/01 A3032 RMK A01 T01470013  RH  040%=      5-min Rain = 0
KCA2 150135Z 36008KT 15/01 A3032 RMK A01 T01470013  RH  040%=      5-min Rain = 0
KCA2 150136Z 01008KT 15/01 A3032 RMK A01 T01470013  RH  040%=      5-min Rain = 0
KCA2 150137Z 00009KT 15/01 A3032 RMK A01 T01470013  RH  040%=      5-min Rain = 0
KCA2 150138Z 00010KT 15/01 A3032 RMK A01 T01460011  RH  040%=      5-min Rain = 0
KCA2 150139Z 01010KT 15/01 A3033 RMK A01 T01470011  RH  040%=      5-min Rain = 0
KCA2 150140Z 36008KT 15/01 A3033 RMK A01 T01470012  RH  040%=      5-min Rain = 0
KCA2 150141Z 00010KT 15/01 A3033 RMK A01 T01470012  RH  040%=      5-min Rain = 0
KCA2 150142Z 01010KT 15/01 A3033 RMK A01 T01460010  RH  039%=      5-min Rain = 0
KCA2 150143Z 35007KT 15/01 A3033 RMK A01 T01470012  RH  040%=      5-min Rain = 0
KCA2 150144Z 01009KT 15/01 A3033 RMK A01 T01460011  RH  040%=      5-min Rain = 0
KCA2 150145Z 01008KT 15/01 A3033 RMK A01 T01460011  RH  040%=      5-min Rain = 0
KCA2 150146Z 02010KT 15/01 A3033 RMK A01 T01460011  RH  040%=      5-min Rain = 0
KCA2 150147Z 01009KT 15/01 A3033 RMK A01 T01460010  RH  040%=      5-min Rain = 0
KCA2 150148Z 01012KT 15/01 A3033 RMK A01 T01460009  RH  039%=      5-min Rain = 0
KCA2 150149Z 01010KT 15/01 A3033 RMK A01 T01460008  RH  039%=      5-min Rain = 0
KCA2 150150Z 00010KT 15/01 A3033 RMK A01 T01470009  RH  039%=      5-min Rain = 0
KCA2 150151Z 35010KT 15/01 A3033 RMK A01 T01460010  RH  039%=      5-min Rain = 0
KCA2 150152Z 00009KT 15/01 A3033 RMK A01 T01460011  RH  040%=      5-min Rain = 0
KCA2 150153Z 01010KT 15/01 A3033 RMK A01 T01450009  RH  040%=      5-min Rain = 0
KCA2 150154Z 00011KT 15/01 A3033 RMK A01 T01450008  RH  039%=      5-min Rain = 0
KCA2 150155Z 00011KT 15/01 A3033 RMK A01 T01460009  RH  039%=      5-min Rain = 0
KCA2 150156Z 36009KT 15/01 A3033 RMK A01 T01450009  RH  039%=      5-min Rain = 0
KCA2 150157Z 35007KT 15/01 A3033 RMK A01 T01450010  RH  040%=      5-min Rain = 0
KCA2 150158Z 00009KT 14/01 A3033 RMK A01 T01440010  RH  040%=      5-min Rain = 0
KCA2 150159Z 36007KT 14/01 A3034 RMK A01 T01440011  RH  040%=      5-min Rain = 0
KCA2 150200Z 00009KT 14/01 A3034 RMK A01 T01430009  RH  040%=      5-min Rain = 0
KCA2 150201Z 00007KT 14/01 A3034 RMK A01 T01440009  RH  040%=      5-min Rain = 0
KCA2 150202Z 36007KT 14/01 A3034 RMK A01 T01440010  RH  040%=      5-min Rain = 0
KCA2 150203Z 00007KT 14/01 A3034 RMK A01 T01440010  RH  040%=      5-min Rain = 0
KCA2 150204Z 00008KT 14/01 A3034 RMK A01 T01430009  RH  040%=      5-min Rain = 0
KCA2 150205Z 00008KT 14/01 A3034 RMK A01 T01430009  RH  040%=      5-min Rain = 0
KCA2 150206Z 00007KT 14/01 A3034 RMK A01 T01430008  RH  040%=      5-min Rain = 0
KCA2 150207Z 35007KT 14/01 A3034 RMK A01 T01440009  RH  040%=      5-min Rain = 0
KCA2 150208Z 34005KT 14/01 A3034 RMK A01 T01430010  RH  040%=      5-min Rain = 0
KCA2 150209Z 34006KT 14/01 A3034 RMK A01 T01430010  RH  040%=      5-min Rain = 0
KCA2 150210Z 33006KT 14/01 A3034 RMK A01 T01420010  RH  040%=      5-min Rain = 0
KCA2 150211Z 33005KT 14/01 A3034 RMK A01 T01420010  RH  041%=      5-min Rain = 0
KCA2 150212Z 01007KT 14/01 A3034 RMK A01 T01420010  RH  041%=      5-min Rain = 0
KCA2 150213Z 36006KT 14/01 A3034 RMK A01 T01420008  RH  040%=      5-min Rain = 0
KCA2 150214Z 35005KT 14/01 A3034 RMK A01 T01420009  RH  040%=      5-min Rain = 0
KCA2 150215Z 34005KT 14/01 A3034 RMK A01 T01420009  RH  040%=      5-min Rain = 0
KCA2 150216Z 32005KT 14/01 A3034 RMK A01 T01410009  RH  041%=      5-min Rain = 0
KCA2 150217Z 32005KT 14/01 A3034 RMK A01 T01410009  RH  040%=      5-min Rain = 0
KCA2 150218Z 32004KT 14/01 A3034 RMK A01 T01410011  RH  041%=      5-min Rain = 0
KCA2 150219Z 31004KT 14/01 A3034 RMK A01 T01390010  RH  041%=      5-min Rain = 0
KCA2 150220Z 35004KT 14/01 A3034 RMK A01 T01390009  RH  041%=      5-min Rain = 0
KCA2 150221Z 32003KT 14/01 A3034 RMK A01 T01390009  RH  041%=      5-min Rain = 0
KCA2 150222Z 31004KT 14/01 A3034 RMK A01 T01390010  RH  041%=      5-min Rain = 0
KCA2 150223Z 34004KT 14/01 A3034 RMK A01 T01390009  RH  041%=      5-min Rain = 0
KCA2 150224Z 35002KT 14/01 A3034 RMK A01 T01390009  RH  041%=      5-min Rain = 0
KCA2 150225Z 35002KT 14/01 A3034 RMK A01 T01390009  RH  041%=      5-min Rain = 0
KCA2 150226Z 01003KT 14/01 A3034 RMK A01 T01390010  RH  041%=      5-min Rain = 0
KCA2 150227Z 35004KT 14/01 A3035 RMK A01 T01390011  RH  042%=      5-min Rain = 0
KCA2 150228Z 32003KT 14/01 A3035 RMK A01 T01380010  RH  042%=      5-min Rain = 0
KCA2 150229Z 33003KT 14/01 A3035 RMK A01 T01380010  RH  042%=      5-min Rain = 0
KCA2 150230Z 34003KT 14/01 A3035 RMK A01 T01370011  RH  042%=      5-min Rain = 0
KCA2 150231Z 34002KT 14/01 A3035 RMK A01 T01360010  RH  042%=      5-min Rain = 0
KCA2 150232Z 35003KT 14/01 A3035 RMK A01 T01360010  RH  042%=      5-min Rain = 0
KCA2 150233Z 01006KT 14/01 A3035 RMK A01 T01350008  RH  042%=      5-min Rain = 0
KCA2 150234Z 01006KT 14/01 A3035 RMK A01 T01370008  RH  041%=      5-min Rain = 0
KCA2 150235Z 36006KT 14/01 A3035 RMK A01 T01380008  RH  041%=      5-min Rain = 0
KCA2 150236Z 00006KT 14/01 A3035 RMK A01 T01380007  RH  041%=      5-min Rain = 0
KCA2 150237Z 36005KT 14/01 A3035 RMK A01 T01380007  RH  041%=      5-min Rain = 0
KCA2 150238Z 35006KT 14/01 A3035 RMK A01 T01380008  RH  041%=      5-min Rain = 0
KCA2 150239Z 36006KT 14/01 A3035 RMK A01 T01380008  RH  041%=      5-min Rain = 0
KCA2 150240Z 01007KT 14/01 A3035 RMK A01 T01380006  RH  040%=      5-min Rain = 0
KCA2 150241Z 00006KT 14/01 A3035 RMK A01 T01380007  RH  041%=      5-min Rain = 0
KCA2 150242Z 36006KT 14/01 A3035 RMK A01 T01380007  RH  041%=      5-min Rain = 0
KCA2 150243Z 35005KT 14/01 A3035 RMK A01 T01380008  RH  041%=      5-min Rain = 0
KCA2 150244Z 36006KT 14/01 A3035 RMK A01 T01380009  RH  041%=      5-min Rain = 0
KCA2 150245Z 34007KT 14/01 A3035 RMK A01 T01370007  RH  041%=      5-min Rain = 0
KCA2 150246Z 35006KT 14/01 A3035 RMK A01 T01370007  RH  041%=      5-min Rain = 0
KCA2 150247Z 36007KT 14/01 A3036 RMK A01 T01370007  RH  041%=      5-min Rain = 0
KCA2 150248Z 35005KT 14/01 A3036 RMK A01 T01370008  RH  041%=      5-min Rain = 0
KCA2 150249Z 34006KT 14/01 A3036 RMK A01 T01370008  RH  041%=      5-min Rain = 0
KCA2 150250Z 34007KT 14/01 A3036 RMK A01 T01370007  RH  041%=      5-min Rain = 0
KCA2 150251Z 33005KT 14/01 A3036 RMK A01 T01370006  RH  041%=      5-min Rain = 0
KCA2 150252Z 33005KT 14/01 A3036 RMK A01 T01370007  RH  041%=      5-min Rain = 0
KCA2 150253Z 33005KT 14/01 A3036 RMK A01 T01370006  RH  041%=      5-min Rain = 0
KCA2 150254Z 33004KT 14/01 A3036 RMK A01 T01370007  RH  041%=      5-min Rain = 0
KCA2 150255Z 33003KT 14/01 A3036 RMK A01 T01360007  RH  041%=      5-min Rain = 0
KCA2 150256Z 34005KT 14/01 A3036 RMK A01 T01360006  RH  041%=      5-min Rain = 0
KCA2 150257Z 35006KT 14/01 A3036 RMK A01 T01360006  RH  041%=      5-min Rain = 0
KCA2 150258Z 34006KT 14/01 A3036 RMK A01 T01360006  RH  041%=      5-min Rain = 0
KCA2 150259Z 33005KT 14/01 A3036 RMK A01 T01360006  RH  041%=      5-min Rain = 0
KCA2 150300Z 33004KT 14/01 A3036 RMK A01 T01360006  RH  041%=      5-min Rain = 0
KCA2 150301Z 35005KT 14/01 A3036 RMK A01 T01360006  RH  041%=      5-min Rain = 0
KCA2 150302Z 35007KT 14/01 A3036 RMK A01 T01360006  RH  041%=      5-min Rain = 0
KCA2 150303Z 34007KT 14/01 A3036 RMK A01 T01360005  RH  041%=      5-min Rain = 0
KCA2 150304Z 31004KT 14/01 A3036 RMK A01 T01360006  RH  041%=      5-min Rain = 0
KCA2 150305Z 32005KT 14/01 A3036 RMK A01 T01360007  RH  042%=      5-min Rain = 0
KCA2 150306Z 36005KT 14/01 A3036 RMK A01 T01350005  RH  041%=      5-min Rain = 0
KCA2 150307Z 00006KT 14/01 A3036 RMK A01 T01350005  RH  041%=      5-min Rain = 0
KCA2 150308Z 35006KT 14/01 A3036 RMK A01 T01350005  RH  041%=      5-min Rain = 0
KCA2 150309Z 35007KT 14/00 A3036 RMK A01 T01350004  RH  041%=      5-min Rain = 0
KCA2 150310Z 34006KT 14/00 A3036 RMK A01 T01360003  RH  040%=      5-min Rain = 0
KCA2 150311Z 33005KT 14/00 A3036 RMK A01 T01360004  RH  040%=      5-min Rain = 0
KCA2 150312Z 33006KT 14/01 A3036 RMK A01 T01360006  RH  041%=      5-min Rain = 0
KCA2 150313Z 33005KT 14/01 A3036 RMK A01 T01350005  RH  041%=      5-min Rain = 0
KCA2 150314Z 33005KT 14/01 A3036 RMK A01 T01350006  RH  041%=      5-min Rain = 0
KCA2 150315Z 35006KT 13/01 A3036 RMK A01 T01340006  RH  041%=      5-min Rain = 0
KCA2 150316Z 35005KT 13/01 A3036 RMK A01 T01340005  RH  041%=      5-min Rain = 0
KCA2 150317Z 00004KT 13/00 A3036 RMK A01 T01340004  RH  041%=      5-min Rain = 0
KCA2 150318Z 35005KT 13/01 A3036 RMK A01 T01340005  RH  041%=      5-min Rain = 0
KCA2 150319Z 34004KT 13/00 A3036 RMK A01 T01340004  RH  041%=      5-min Rain = 0
KCA2 150320Z 35007KT 13/00 A3036 RMK A01 T01340003  RH  041%=      5-min Rain = 0
KCA2 150321Z 35003KT 13/00 A3037 RMK A01 T01340003  RH  041%=      5-min Rain = 0
KCA2 150322Z 35004KT 13/00 A3037 RMK A01 T01340003  RH  041%=      5-min Rain = 0
KCA2 150323Z 00004KT 13/00 A3037 RMK A01 T01330003  RH  041%=      5-min Rain = 0
KCA2 150324Z 00005KT 13/00 A3037 RMK A01 T01330002  RH  041%=      5-min Rain = 0
KCA2 150325Z 36005KT 13/00 A3037 RMK A01 T01330002  RH  041%=      5-min Rain = 0
KCA2 150326Z 34004KT 13/00 A3037 RMK A01 T01330003  RH  041%=      5-min Rain = 0
KCA2 150327Z 34003KT 13/00 A3037 RMK A01 T01330003  RH  041%=      5-min Rain = 0
KCA2 150328Z 35007KT 13/00 A3037 RMK A01 T01330002  RH  041%=      5-min Rain = 0
KCA2 150329Z 35006KT 13/00 A3037 RMK A01 T01330001  RH  040%=      5-min Rain = 0
KCA2 150330Z 34005KT 13/00 A3037 RMK A01 T01330001  RH  040%=      5-min Rain = 0
KCA2 150331Z 32003KT 13/00 A3037 RMK A01 T01340002  RH  040%=      5-min Rain = 0
KCA2 150332Z 32004KT 13/00 A3037 RMK A01 T01320004  RH  041%=      5-min Rain = 0
KCA2 150333Z 29004KT 13/00 A3037 RMK A01 T01310003  RH  042%=      5-min Rain = 0
KCA2 150334Z 27004KT 13/01 A3037 RMK A01 T01300005  RH  042%=      5-min Rain = 0
KCA2 150335Z 29004KT 13/01 A3037 RMK A01 T01280008  RH  044%=      5-min Rain = 0
KCA2 150336Z 32004KT 13/00 A3037 RMK A01 T01270004  RH  043%=      5-min Rain = 0
KCA2 150337Z 34003KT 13/00 A3037 RMK A01 T01280000  RH  041%=      5-min Rain = 0
KCA2 150338Z 34003KT 13/00 A3037 RMK A01 T01290002  RH  041%=      5-min Rain = 0
KCA2 150339Z 34005KT 13/00 A3037 RMK A01 T01300001  RH  041%=      5-min Rain = 0
KCA2 150340Z 34005KT 13/00 A3037 RMK A01 T01300001  RH  041%=      5-min Rain = 0
KCA2 150341Z 32005KT 13/00 A3037 RMK A01 T013100-0  RH  041%=      5-min Rain = 0
KCA2 150342Z 33006KT 13/00 A3037 RMK A01 T01310001  RH  041%=      5-min Rain = 0
KCA2 150343Z 33005KT 13/00 A3037 RMK A01 T01310000  RH  041%=      5-min Rain = 0
KCA2 150344Z 34006KT 13/00 A3037 RMK A01 T01310001  RH  041%=      5-min Rain = 0
KCA2 150345Z 34006KT 13/M00 A3037 RMK A01 T01311001  RH  040%=      5-min Rain = 0
KCA2 150346Z 33006KT 13/00 A3037 RMK A01 T013200-0  RH  040%=      5-min Rain = 0
KCA2 150347Z 33007KT 13/00 A3037 RMK A01 T013200-0  RH  040%=      5-min Rain = 0
KCA2 150348Z 31007KT 13/M00 A3037 RMK A01 T01321001  RH  040%=      5-min Rain = 0
KCA2 150349Z 28005KT 13/00 A3037 RMK A01 T01310004  RH  042%=      5-min Rain = 0
KCA2 150350Z 28008KT 13/01 A3037 RMK A01 T01270009  RH  044%=      5-min Rain = 0
KCA2 150351Z 29008KT 12/01 A3037 RMK A01 T01230010  RH  046%=      5-min Rain = 0
KCA2 150352Z 29007KT 12/01 A3037 RMK A01 T01210010  RH  047%=      5-min Rain = 0
KCA2 150353Z 29009KT 12/01 A3037 RMK A01 T01200011  RH  047%=      5-min Rain = 0
KCA2 150354Z 28008KT 12/01 A3037 RMK A01 T01190013  RH  048%=      5-min Rain = 0
KCA2 150355Z 28009KT 12/01 A3037 RMK A01 T01170013  RH  049%=      5-min Rain = 0
KCA2 150356Z 28009KT 12/01 A3037 RMK A01 T01160014  RH  049%=      5-min Rain = 0
KCA2 150357Z 28010KT 12/01 A3037 RMK A01 T01160013  RH  049%=      5-min Rain = 0
KCA2 150358Z 28010KT 12/01 A3037 RMK A01 T01160013  RH  049%=      5-min Rain = 0
KCA2 150359Z 28010KT 12/01 A3037 RMK A01 T01160013  RH  049%=      5-min Rain = 0
KCA2 150400Z 28011KT 12/01 A3037 RMK A01 T01150014  RH  050%=      5-min Rain = 0
KCA2 150401Z 28009KT 12/01 A3037 RMK A01 T01150014  RH  050%=      5-min Rain = 0
KCA2 150402Z 28010KT 12/01 A3037 RMK A01 T01150014  RH  050%=      5-min Rain = 0
KCA2 150403Z 28010KT 12/01 A3037 RMK A01 T01150013  RH  050%=      5-min Rain = 0
KCA2 150404Z 28011KT 12/01 A3037 RMK A01 T01150013  RH  049%=      5-min Rain = 0
KCA2 150405Z 28010KT 12/01 A3037 RMK A01 T01150013  RH  049%=      5-min Rain = 0
KCA2 150406Z 27009KT 12/01 A3037 RMK A01 T01150012  RH  049%=      5-min Rain = 0
KCA2 150407Z 27009KT 12/01 A3037 RMK A01 T01150012  RH  049%=      5-min Rain = 0
KCA2 150408Z 27011KT 12/01 A3037 RMK A01 T01150013  RH  049%=      5-min Rain = 0
KCA2 150409Z 28011KT 12/01 A3037 RMK A01 T01150012  RH  049%=      5-min Rain = 0
KCA2 150410Z 28010KT 12/01 A3037 RMK A01 T01150012  RH  049%=      5-min Rain = 0
KCA2 150411Z 27007KT 12/01 A3038 RMK A01 T01150012  RH  049%=      5-min Rain = 0
KCA2 150412Z 27010KT 12/01 A3037 RMK A01 T01150012  RH  049%=      5-min Rain = 0
KCA2 150413Z 28009KT 12/01 A3037 RMK A01 T01160011  RH  049%=      5-min Rain = 0
KCA2 150414Z 27009KT 12/01 A3038 RMK A01 T01160012  RH  049%=      5-min Rain = 0
KCA2 150415Z 27009KT 12/01 A3038 RMK A01 T01160010  RH  048%=      5-min Rain = 0
KCA2 150416Z 27007KT 12/01 A3038 RMK A01 T01170011  RH  048%=      5-min Rain = 0
KCA2 150417Z 27008KT 12/01 A3037 RMK A01 T01170012  RH  048%=      5-min Rain = 0
KCA2 150418Z 27009KT 12/01 A3037 RMK A01 T01170012  RH  048%=      5-min Rain = 0
KCA2 150419Z 28008KT 12/01 A3037 RMK A01 T01160012  RH  049%=      5-min Rain = 0
KCA2 150420Z 27009KT 12/01 A3037 RMK A01 T01160012  RH  049%=      5-min Rain = 0
KCA2 150421Z 28010KT 12/01 A3037 RMK A01 T01160012  RH  049%=      5-min Rain = 0
KCA2 150422Z 29011KT 12/01 A3037 RMK A01 T01160011  RH  048%=      5-min Rain = 0
KCA2 150423Z 29010KT 12/01 A3038 RMK A01 T01160012  RH  049%=      5-min Rain = 0
KCA2 150424Z 29010KT 12/01 A3037 RMK A01 T01150011  RH  049%=      5-min Rain = 0
KCA2 150425Z 29009KT 12/01 A3037 RMK A01 T01160011  RH  049%=      5-min Rain = 0
KCA2 150426Z 29010KT 12/01 A3037 RMK A01 T01150012  RH  049%=      5-min Rain = 0
KCA2 150427Z 29010KT 11/01 A3037 RMK A01 T01140011  RH  049%=      5-min Rain = 0
KCA2 150428Z 29011KT 12/01 A3037 RMK A01 T01150011  RH  049%=      5-min Rain = 0
KCA2 150429Z 29008KT 12/01 A3037 RMK A01 T01150011  RH  049%=      5-min Rain = 0
KCA2 150430Z 28008KT 12/01 A3037 RMK A01 T01150012  RH  049%=      5-min Rain = 0
KCA2 150431Z 28009KT 11/01 A3037 RMK A01 T01130012  RH  050%=      5-min Rain = 0
KCA2 150432Z 28009KT 11/01 A3038 RMK A01 T01130012  RH  050%=      5-min Rain = 0
KCA2 150433Z 28009KT 11/01 A3038 RMK A01 T01130012  RH  050%=      5-min Rain = 0
KCA2 150434Z 28008KT 11/01 A3038 RMK A01 T01120012  RH  050%=      5-min Rain = 0
KCA2 150435Z 28009KT 11/01 A3038 RMK A01 T01120012  RH  050%=      5-min Rain = 0
KCA2 150436Z 28008KT 11/01 A3038 RMK A01 T01120012  RH  050%=      5-min Rain = 0
KCA2 150437Z 29010KT 11/01 A3038 RMK A01 T01110012  RH  050%=      5-min Rain = 0
KCA2 150438Z 29010KT 11/01 A3038 RMK A01 T01110011  RH  050%=      5-min Rain = 0
KCA2 150439Z 28009KT 11/01 A3038 RMK A01 T01110012  RH  051%=      5-min Rain = 0
KCA2 150440Z 28010KT 11/01 A3038 RMK A01 T01110012  RH  050%=      5-min Rain = 0
KCA2 150441Z 29011KT 11/01 A3038 RMK A01 T01110011  RH  050%=      5-min Rain = 0
KCA2 150442Z 29009KT 11/01 A3038 RMK A01 T01110010  RH  050%=      5-min Rain = 0
KCA2 150443Z 29009KT 11/01 A3038 RMK A01 T01120011  RH  050%=      5-min Rain = 0
KCA2 150444Z 28008KT 11/01 A3038 RMK A01 T01120012  RH  050%=      5-min Rain = 0
KCA2 150445Z 28011KT 11/01 A3038 RMK A01 T01110011  RH  050%=      5-min Rain = 0
KCA2 150446Z 29010KT 11/01 A3038 RMK A01 T01100011  RH  050%=      5-min Rain = 0
KCA2 150447Z 29009KT 11/01 A3038 RMK A01 T01100011  RH  051%=      5-min Rain = 0
KCA2 150448Z 29008KT 11/01 A3038 RMK A01 T01100013  RH  051%=      5-min Rain = 0
KCA2 150449Z 28010KT 11/01 A3038 RMK A01 T01090012  RH  051%=      5-min Rain = 0
KCA2 150450Z 28009KT 11/01 A3038 RMK A01 T01080012  RH  051%=      5-min Rain = 0
KCA2 150451Z 28011KT 11/01 A3038 RMK A01 T01080012  RH  051%=      5-min Rain = 0
KCA2 150452Z 28010KT 11/01 A3038 RMK A01 T01080012  RH  051%=      5-min Rain = 0
KCA2 150453Z 28010KT 11/01 A3038 RMK A01 T01080011  RH  051%=      5-min Rain = 0
KCA2 150454Z 28010KT 11/01 A3038 RMK A01 T01090012  RH  051%=      5-min Rain = 0
KCA2 150455Z 28010KT 11/01 A3038 RMK A01 T01080013  RH  052%=      5-min Rain = 0
KCA2 150456Z 28009KT 11/01 A3038 RMK A01 T01080011  RH  051%=      5-min Rain = 0
KCA2 150457Z 28009KT 11/01 A3038 RMK A01 T01080011  RH  051%=      5-min Rain = 0
KCA2 150458Z 28009KT 11/01 A3038 RMK A01 T01080011  RH  051%=      5-min Rain = 0
KCA2 150459Z 28009KT 11/01 A3038 RMK A01 T01080011  RH  051%=      5-min Rain = 0
KCA2 150500Z 28008KT 11/01 A3038 RMK A01 T01080010  RH  051%=      5-min Rain = 0
KCA2 150501Z 28009KT 11/01 A3038 RMK A01 T01090009  RH  050%=      5-min Rain = 0
KCA2 150502Z 28011KT 11/01 A3038 RMK A01 T01100010  RH  050%=      5-min Rain = 0
KCA2 150503Z 28009KT 11/01 A3038 RMK A01 T01100010  RH  050%=      5-min Rain = 0
KCA2 150504Z 28009KT 11/01 A3038 RMK A01 T01090009  RH  050%=      5-min Rain = 0
KCA2 150505Z 28009KT 11/01 A3038 RMK A01 T01090009  RH  050%=      5-min Rain = 0
KCA2 150506Z 27008KT 11/01 A3038 RMK A01 T01090009  RH  050%=      5-min Rain = 0
KCA2 150507Z 27009KT 11/01 A3038 RMK A01 T01090008  RH  050%=      5-min Rain = 0
KCA2 150508Z 28010KT 11/01 A3038 RMK A01 T01090009  RH  050%=      5-min Rain = 0
KCA2 150509Z 28010KT 11/01 A3038 RMK A01 T01090009  RH  050%=      5-min Rain = 0
KCA2 150510Z 28011KT 11/01 A3038 RMK A01 T01090009  RH  050%=      5-min Rain = 0
KCA2 150511Z 28010KT 11/01 A3038 RMK A01 T01090009  RH  050%=      5-min Rain = 0
KCA2 150512Z 28011KT 11/01 A3038 RMK A01 T01090009  RH  050%=      5-min Rain = 0
KCA2 150513Z 29009KT 11/01 A3038 RMK A01 T01090009  RH  050%=      5-min Rain = 0
KCA2 150514Z 28008KT 11/01 A3038 RMK A01 T01080009  RH  050%=      5-min Rain = 0
KCA2 150515Z 29010KT 11/01 A3038 RMK A01 T01080008  RH  050%=      5-min Rain = 0
KCA2 150516Z 28009KT 11/01 A3038 RMK A01 T01080008  RH  050%=      5-min Rain = 0
KCA2 150517Z 28010KT 11/01 A3038 RMK A01 T01080009  RH  050%=      5-min Rain = 0
KCA2 150518Z 28009KT 11/01 A3038 RMK A01 T01070008  RH  050%=      5-min Rain = 0
KCA2 150519Z 28009KT 11/01 A3038 RMK A01 T01070009  RH  051%=      5-min Rain = 0
KCA2 150520Z 28009KT 11/01 A3038 RMK A01 T01060008  RH  051%=      5-min Rain = 0
KCA2 150521Z 28009KT 11/01 A3038 RMK A01 T01060008  RH  051%=      5-min Rain = 0
KCA2 150522Z 28008KT 11/01 A3038 RMK A01 T01060008  RH  051%=      5-min Rain = 0
KCA2 150523Z 28010KT 11/01 A3038 RMK A01 T01050008  RH  051%=      5-min Rain = 0
KCA2 150524Z 28008KT 11/01 A3038 RMK A01 T01050008  RH  051%=      5-min Rain = 0
KCA2 150525Z 28008KT 11/01 A3038 RMK A01 T01050007  RH  051%=      5-min Rain = 0
KCA2 150526Z 29008KT 11/01 A3038 RMK A01 T01050006  RH  050%=      5-min Rain = 0
KCA2 150527Z 28009KT 11/01 A3038 RMK A01 T01060008  RH  051%=      5-min Rain = 0
KCA2 150528Z 28009KT 11/01 A3038 RMK A01 T01050006  RH  050%=      5-min Rain = 0
KCA2 150529Z 28008KT 11/01 A3038 RMK A01 T01060007  RH  050%=      5-min Rain = 0
KCA2 150530Z 28009KT 11/01 A3038 RMK A01 T01050006  RH  050%=      5-min Rain = 0
KCA2 150531Z 28009KT 11/01 A3038 RMK A01 T01050007  RH  051%=      5-min Rain = 0
KCA2 150532Z 28009KT 11/01 A3039 RMK A01 T01050008  RH  051%=      5-min Rain = 0
KCA2 150533Z 29008KT 10/01 A3039 RMK A01 T01040008  RH  051%=      5-min Rain = 0
KCA2 150534Z 28008KT 10/01 A3039 RMK A01 T01040007  RH  051%=      5-min Rain = 0
KCA2 150535Z 29009KT 11/01 A3039 RMK A01 T01050006  RH  050%=      5-min Rain = 0
KCA2 150536Z 29009KT 11/01 A3039 RMK A01 T01050006  RH  050%=      5-min Rain = 0
KCA2 150537Z 28009KT 11/01 A3039 RMK A01 T01050006  RH  050%=      5-min Rain = 0
KCA2 150538Z 28011KT 11/01 A3039 RMK A01 T01050006  RH  050%=      5-min Rain = 0
KCA2 150539Z 28010KT 11/01 A3039 RMK A01 T01050005  RH  050%=      5-min Rain = 0
KCA2 150540Z 28011KT 11/01 A3039 RMK A01 T01050005  RH  050%=      5-min Rain = 0
KCA2 150541Z 28010KT 11/01 A3039 RMK A01 T01050005  RH  050%=      5-min Rain = 0
KCA2 150542Z 28010KT 11/01 A3039 RMK A01 T01050005  RH  050%=      5-min Rain = 0
KCA2 150543Z 29011KT 10/01 A3039 RMK A01 T01040005  RH  050%=      5-min Rain = 0
KCA2 150544Z 29010KT 11/01 A3039 RMK A01 T01050005  RH  050%=      5-min Rain = 0
KCA2 150545Z 28011KT 10/01 A3039 RMK A01 T01040006  RH  051%=      5-min Rain = 0
KCA2 150546Z 28012KT 10/01 A3039 RMK A01 T01030005  RH  051%=      5-min Rain = 0
KCA2 150547Z 28011KT 10/01 A3039 RMK A01 T01030006  RH  051%=      5-min Rain = 0
KCA2 150548Z 28011KT 10/01 A3039 RMK A01 T01030006  RH  051%=      5-min Rain = 0
KCA2 150549Z 29011KT 10/01 A3039 RMK A01 T01020006  RH  051%=      5-min Rain = 0
KCA2 150550Z 29011KT 10/01 A3039 RMK A01 T01020005  RH  051%=      5-min Rain = 0
KCA2 150551Z 28011KT 10/01 A3039 RMK A01 T01020005  RH  051%=      5-min Rain = 0
KCA2 150552Z 28011KT 10/01 A3039 RMK A01 T01020006  RH  051%=      5-min Rain = 0
KCA2 150553Z 28011KT 10/01 A3039 RMK A01 T01020006  RH  051%=      5-min Rain = 0
KCA2 150554Z 28010KT 10/01 A3039 RMK A01 T01010006  RH  051%=      5-min Rain = 0
KCA2 150555Z 28010KT 10/01 A3039 RMK A01 T01010006  RH  052%=      5-min Rain = 0
KCA2 150556Z 28011KT 10/01 A3039 RMK A01 T01010005  RH  051%=      5-min Rain = 0
KCA2 150557Z 29011KT 10/01 A3039 RMK A01 T01010005  RH  051%=      5-min Rain = 0
KCA2 150558Z 28011KT 10/01 A3039 RMK A01 T01010005  RH  051%=      5-min Rain = 0
KCA2 150559Z 29010KT 10/00 A3039 RMK A01 T01010004  RH  051%=      5-min Rain = 0

Page generated in 0.0848 seconds.